<?xml version="1.0" encoding="UTF-8" standalone="no" ?>
<gpx xmlns="http://www.topografix.com/GPX/1/1" xmlns:xsi="http://www.w3.org/2001/XMLSchema-instance" xsi:schemaLocation="http://www.topografix.com/GPX/1/1 http://www.topografix.com/GPX/1/1/gpx.xsd" version="1.1" creator="VisuGPX - https://www.visugpx.com">
  <metadata>
    <name>les gorges de Nyer</name>
    <desc><![CDATA[aujourd \'hui petite rando très très agréable , plate sans difficulté à part une traverser de rocher . Dans cette ballade on a 3 cache a trouver, l une dans un tunnel .]]></desc>
  </metadata>
  <trk>
    <name><![CDATA[001-2013/07/25-16:01:04]]></name>
    <trkseg>
      <trkpt lat="42.52675" lon="2.28251">
        <ele>885</ele>
        <time>2013-07-25T14:01:04Z</time>
      </trkpt>
      <trkpt lat="42.52651" lon="2.28233">
        <ele>888</ele>
        <time>2013-07-25T14:03:14Z</time>
      </trkpt>
      <trkpt lat="42.52648" lon="2.2823">
        <ele>888</ele>
        <time>2013-07-25T14:03:16Z</time>
      </trkpt>
      <trkpt lat="42.52646" lon="2.28227">
        <ele>888</ele>
        <time>2013-07-25T14:03:18Z</time>
      </trkpt>
      <trkpt lat="42.52643" lon="2.2822">
        <ele>888</ele>
        <time>2013-07-25T14:03:21Z</time>
      </trkpt>
      <trkpt lat="42.52643" lon="2.28214">
        <ele>888</ele>
        <time>2013-07-25T14:03:24Z</time>
      </trkpt>
      <trkpt lat="42.52641" lon="2.2821">
        <ele>888</ele>
        <time>2013-07-25T14:03:27Z</time>
      </trkpt>
      <trkpt lat="42.52639" lon="2.28208">
        <ele>888</ele>
        <time>2013-07-25T14:03:29Z</time>
      </trkpt>
      <trkpt lat="42.52638" lon="2.28203">
        <ele>888</ele>
        <time>2013-07-25T14:03:32Z</time>
      </trkpt>
      <trkpt lat="42.52637" lon="2.282">
        <ele>888</ele>
        <time>2013-07-25T14:03:34Z</time>
      </trkpt>
      <trkpt lat="42.52635" lon="2.28197">
        <ele>888</ele>
        <time>2013-07-25T14:03:36Z</time>
      </trkpt>
      <trkpt lat="42.52634" lon="2.28193">
        <ele>888</ele>
        <time>2013-07-25T14:03:39Z</time>
      </trkpt>
      <trkpt lat="42.52633" lon="2.28189">
        <ele>888</ele>
        <time>2013-07-25T14:03:41Z</time>
      </trkpt>
      <trkpt lat="42.52629" lon="2.28183">
        <ele>888</ele>
        <time>2013-07-25T14:03:45Z</time>
      </trkpt>
      <trkpt lat="42.52628" lon="2.28179">
        <ele>888</ele>
        <time>2013-07-25T14:03:47Z</time>
      </trkpt>
      <trkpt lat="42.52626" lon="2.28175">
        <ele>888</ele>
        <time>2013-07-25T14:03:49Z</time>
      </trkpt>
      <trkpt lat="42.52622" lon="2.2817">
        <ele>888</ele>
        <time>2013-07-25T14:03:54Z</time>
      </trkpt>
      <trkpt lat="42.52615" lon="2.28169">
        <ele>888</ele>
        <time>2013-07-25T14:04:00Z</time>
      </trkpt>
      <trkpt lat="42.52612" lon="2.28169">
        <ele>888</ele>
        <time>2013-07-25T14:04:02Z</time>
      </trkpt>
      <trkpt lat="42.52611" lon="2.28167">
        <ele>888</ele>
        <time>2013-07-25T14:04:09Z</time>
      </trkpt>
      <trkpt lat="42.52616" lon="2.28166">
        <ele>888</ele>
        <time>2013-07-25T14:04:14Z</time>
      </trkpt>
      <trkpt lat="42.52619" lon="2.28167">
        <ele>889</ele>
        <time>2013-07-25T14:04:16Z</time>
      </trkpt>
      <trkpt lat="42.52623" lon="2.28167">
        <ele>891</ele>
        <time>2013-07-25T14:04:19Z</time>
      </trkpt>
      <trkpt lat="42.52625" lon="2.28167">
        <ele>891</ele>
        <time>2013-07-25T14:04:21Z</time>
      </trkpt>
      <trkpt lat="42.52627" lon="2.28168">
        <ele>891</ele>
        <time>2013-07-25T14:04:28Z</time>
      </trkpt>
      <trkpt lat="42.52622" lon="2.28163">
        <ele>889</ele>
        <time>2013-07-25T14:04:40Z</time>
      </trkpt>
      <trkpt lat="42.52613" lon="2.28171">
        <ele>889</ele>
        <time>2013-07-25T14:04:51Z</time>
      </trkpt>
      <trkpt lat="42.52608" lon="2.28178">
        <ele>887</ele>
        <time>2013-07-25T14:04:55Z</time>
      </trkpt>
      <trkpt lat="42.52603" lon="2.28182">
        <ele>887</ele>
        <time>2013-07-25T14:04:59Z</time>
      </trkpt>
      <trkpt lat="42.52599" lon="2.28184">
        <ele>887</ele>
        <time>2013-07-25T14:05:02Z</time>
      </trkpt>
      <trkpt lat="42.52594" lon="2.28189">
        <ele>887</ele>
        <time>2013-07-25T14:05:06Z</time>
      </trkpt>
      <trkpt lat="42.5259" lon="2.28192">
        <ele>887</ele>
        <time>2013-07-25T14:05:10Z</time>
      </trkpt>
      <trkpt lat="42.52585" lon="2.28196">
        <ele>887</ele>
        <time>2013-07-25T14:05:14Z</time>
      </trkpt>
      <trkpt lat="42.52581" lon="2.282">
        <ele>887</ele>
        <time>2013-07-25T14:05:18Z</time>
      </trkpt>
      <trkpt lat="42.52577" lon="2.28205">
        <ele>887</ele>
        <time>2013-07-25T14:05:22Z</time>
      </trkpt>
      <trkpt lat="42.52575" lon="2.28209">
        <ele>887</ele>
        <time>2013-07-25T14:05:25Z</time>
      </trkpt>
      <trkpt lat="42.52574" lon="2.28213">
        <ele>887</ele>
        <time>2013-07-25T14:05:27Z</time>
      </trkpt>
      <trkpt lat="42.52572" lon="2.2822">
        <ele>887</ele>
        <time>2013-07-25T14:05:31Z</time>
      </trkpt>
      <trkpt lat="42.52569" lon="2.28226">
        <ele>887</ele>
        <time>2013-07-25T14:05:36Z</time>
      </trkpt>
      <trkpt lat="42.52565" lon="2.2823">
        <ele>887</ele>
        <time>2013-07-25T14:05:39Z</time>
      </trkpt>
      <trkpt lat="42.52563" lon="2.28231">
        <ele>887</ele>
        <time>2013-07-25T14:05:42Z</time>
      </trkpt>
      <trkpt lat="42.52554" lon="2.28234">
        <ele>887</ele>
        <time>2013-07-25T14:05:47Z</time>
      </trkpt>
      <trkpt lat="42.5255" lon="2.28235">
        <ele>889</ele>
        <time>2013-07-25T14:05:50Z</time>
      </trkpt>
      <trkpt lat="42.52544" lon="2.28234">
        <ele>889</ele>
        <time>2013-07-25T14:05:54Z</time>
      </trkpt>
      <trkpt lat="42.5254" lon="2.28233">
        <ele>890</ele>
        <time>2013-07-25T14:05:57Z</time>
      </trkpt>
      <trkpt lat="42.52535" lon="2.2823">
        <ele>891</ele>
        <time>2013-07-25T14:06:02Z</time>
      </trkpt>
      <trkpt lat="42.52528" lon="2.28228">
        <ele>891</ele>
        <time>2013-07-25T14:06:07Z</time>
      </trkpt>
      <trkpt lat="42.52524" lon="2.28228">
        <ele>892</ele>
        <time>2013-07-25T14:06:09Z</time>
      </trkpt>
      <trkpt lat="42.5252" lon="2.2823">
        <ele>894</ele>
        <time>2013-07-25T14:06:13Z</time>
      </trkpt>
      <trkpt lat="42.52516" lon="2.28233">
        <ele>894</ele>
        <time>2013-07-25T14:06:16Z</time>
      </trkpt>
      <trkpt lat="42.52513" lon="2.28236">
        <ele>894</ele>
        <time>2013-07-25T14:06:21Z</time>
      </trkpt>
      <trkpt lat="42.52509" lon="2.28243">
        <ele>894</ele>
        <time>2013-07-25T14:06:24Z</time>
      </trkpt>
      <trkpt lat="42.52506" lon="2.28246">
        <ele>894</ele>
        <time>2013-07-25T14:06:29Z</time>
      </trkpt>
      <trkpt lat="42.52499" lon="2.28251">
        <ele>894</ele>
        <time>2013-07-25T14:06:32Z</time>
      </trkpt>
      <trkpt lat="42.52493" lon="2.28254">
        <ele>895</ele>
        <time>2013-07-25T14:06:36Z</time>
      </trkpt>
      <trkpt lat="42.52487" lon="2.28254">
        <ele>898</ele>
        <time>2013-07-25T14:06:41Z</time>
      </trkpt>
      <trkpt lat="42.52483" lon="2.28255">
        <ele>898</ele>
        <time>2013-07-25T14:06:45Z</time>
      </trkpt>
      <trkpt lat="42.52478" lon="2.28255">
        <ele>900</ele>
        <time>2013-07-25T14:06:48Z</time>
      </trkpt>
      <trkpt lat="42.52475" lon="2.28254">
        <ele>900</ele>
        <time>2013-07-25T14:06:50Z</time>
      </trkpt>
      <trkpt lat="42.52468" lon="2.28252">
        <ele>900</ele>
        <time>2013-07-25T14:06:55Z</time>
      </trkpt>
      <trkpt lat="42.52463" lon="2.28249">
        <ele>900</ele>
        <time>2013-07-25T14:06:58Z</time>
      </trkpt>
      <trkpt lat="42.52459" lon="2.28248">
        <ele>900</ele>
        <time>2013-07-25T14:07:03Z</time>
      </trkpt>
      <trkpt lat="42.52455" lon="2.28248">
        <ele>900</ele>
        <time>2013-07-25T14:07:05Z</time>
      </trkpt>
      <trkpt lat="42.52451" lon="2.28247">
        <ele>900</ele>
        <time>2013-07-25T14:07:09Z</time>
      </trkpt>
      <trkpt lat="42.52447" lon="2.28248">
        <ele>900</ele>
        <time>2013-07-25T14:07:11Z</time>
      </trkpt>
      <trkpt lat="42.52443" lon="2.28248">
        <ele>900</ele>
        <time>2013-07-25T14:07:14Z</time>
      </trkpt>
      <trkpt lat="42.52439" lon="2.28249">
        <ele>900</ele>
        <time>2013-07-25T14:07:18Z</time>
      </trkpt>
      <trkpt lat="42.52433" lon="2.28247">
        <ele>900</ele>
        <time>2013-07-25T14:07:22Z</time>
      </trkpt>
      <trkpt lat="42.52432" lon="2.28249">
        <ele>900</ele>
        <time>2013-07-25T14:07:25Z</time>
      </trkpt>
      <trkpt lat="42.52428" lon="2.28249">
        <ele>900</ele>
        <time>2013-07-25T14:07:29Z</time>
      </trkpt>
      <trkpt lat="42.5242" lon="2.2825">
        <ele>900</ele>
        <time>2013-07-25T14:07:34Z</time>
      </trkpt>
      <trkpt lat="42.52418" lon="2.28251">
        <ele>900</ele>
        <time>2013-07-25T14:07:36Z</time>
      </trkpt>
      <trkpt lat="42.52414" lon="2.28251">
        <ele>900</ele>
        <time>2013-07-25T14:07:39Z</time>
      </trkpt>
      <trkpt lat="42.5241" lon="2.28252">
        <ele>900</ele>
        <time>2013-07-25T14:07:42Z</time>
      </trkpt>
      <trkpt lat="42.52403" lon="2.28251">
        <ele>901</ele>
        <time>2013-07-25T14:07:48Z</time>
      </trkpt>
      <trkpt lat="42.52398" lon="2.2825">
        <ele>902</ele>
        <time>2013-07-25T14:07:51Z</time>
      </trkpt>
      <trkpt lat="42.52394" lon="2.28249">
        <ele>903</ele>
        <time>2013-07-25T14:07:54Z</time>
      </trkpt>
      <trkpt lat="42.52388" lon="2.28249">
        <ele>903</ele>
        <time>2013-07-25T14:07:58Z</time>
      </trkpt>
      <trkpt lat="42.52385" lon="2.28249">
        <ele>903</ele>
        <time>2013-07-25T14:08:00Z</time>
      </trkpt>
      <trkpt lat="42.52382" lon="2.28248">
        <ele>903</ele>
        <time>2013-07-25T14:08:03Z</time>
      </trkpt>
      <trkpt lat="42.52376" lon="2.28249">
        <ele>903</ele>
        <time>2013-07-25T14:08:07Z</time>
      </trkpt>
      <trkpt lat="42.52369" lon="2.28249">
        <ele>904</ele>
        <time>2013-07-25T14:08:12Z</time>
      </trkpt>
      <trkpt lat="42.52366" lon="2.28247">
        <ele>904</ele>
        <time>2013-07-25T14:08:14Z</time>
      </trkpt>
      <trkpt lat="42.52362" lon="2.28246">
        <ele>905</ele>
        <time>2013-07-25T14:08:17Z</time>
      </trkpt>
      <trkpt lat="42.52358" lon="2.28244">
        <ele>907</ele>
        <time>2013-07-25T14:08:22Z</time>
      </trkpt>
      <trkpt lat="42.52358" lon="2.28242">
        <ele>908</ele>
        <time>2013-07-25T14:08:37Z</time>
      </trkpt>
      <trkpt lat="42.52359" lon="2.28244">
        <ele>908</ele>
        <time>2013-07-25T14:08:48Z</time>
      </trkpt>
      <trkpt lat="42.52359" lon="2.28247">
        <ele>908</ele>
        <time>2013-07-25T14:08:51Z</time>
      </trkpt>
      <trkpt lat="42.52359" lon="2.28251">
        <ele>908</ele>
        <time>2013-07-25T14:08:55Z</time>
      </trkpt>
      <trkpt lat="42.52359" lon="2.2826">
        <ele>908</ele>
        <time>2013-07-25T14:08:59Z</time>
      </trkpt>
      <trkpt lat="42.52358" lon="2.28267">
        <ele>908</ele>
        <time>2013-07-25T14:09:02Z</time>
      </trkpt>
      <trkpt lat="42.52358" lon="2.28272">
        <ele>908</ele>
        <time>2013-07-25T14:09:07Z</time>
      </trkpt>
      <trkpt lat="42.5236" lon="2.28281">
        <ele>908</ele>
        <time>2013-07-25T14:09:11Z</time>
      </trkpt>
      <trkpt lat="42.52359" lon="2.28286">
        <ele>908</ele>
        <time>2013-07-25T14:09:16Z</time>
      </trkpt>
      <trkpt lat="42.52327" lon="2.28283">
        <ele>910</ele>
        <time>2013-07-25T14:09:33Z</time>
      </trkpt>
      <trkpt lat="42.52317" lon="2.28297">
        <ele>910</ele>
        <time>2013-07-25T14:09:45Z</time>
      </trkpt>
      <trkpt lat="42.52326" lon="2.28313">
        <ele>910</ele>
        <time>2013-07-25T14:09:49Z</time>
      </trkpt>
      <trkpt lat="42.52323" lon="2.28317">
        <ele>913</ele>
        <time>2013-07-25T14:09:53Z</time>
      </trkpt>
      <trkpt lat="42.52318" lon="2.28317">
        <ele>914</ele>
        <time>2013-07-25T14:09:57Z</time>
      </trkpt>
      <trkpt lat="42.52319" lon="2.28317">
        <ele>916</ele>
        <time>2013-07-25T14:10:04Z</time>
      </trkpt>
      <trkpt lat="42.5232" lon="2.2832">
        <ele>918</ele>
        <time>2013-07-25T14:10:11Z</time>
      </trkpt>
      <trkpt lat="42.52317" lon="2.28321">
        <ele>918</ele>
        <time>2013-07-25T14:10:13Z</time>
      </trkpt>
      <trkpt lat="42.52301" lon="2.28328">
        <ele>918</ele>
        <time>2013-07-25T14:10:27Z</time>
      </trkpt>
      <trkpt lat="42.52299" lon="2.2833">
        <ele>918</ele>
        <time>2013-07-25T14:10:30Z</time>
      </trkpt>
      <trkpt lat="42.52295" lon="2.28335">
        <ele>918</ele>
        <time>2013-07-25T14:10:35Z</time>
      </trkpt>
      <trkpt lat="42.52293" lon="2.28342">
        <ele>918</ele>
        <time>2013-07-25T14:10:38Z</time>
      </trkpt>
      <trkpt lat="42.52291" lon="2.28345">
        <ele>918</ele>
        <time>2013-07-25T14:10:42Z</time>
      </trkpt>
      <trkpt lat="42.52289" lon="2.2835">
        <ele>918</ele>
        <time>2013-07-25T14:10:44Z</time>
      </trkpt>
      <trkpt lat="42.52288" lon="2.28351">
        <ele>918</ele>
        <time>2013-07-25T14:10:49Z</time>
      </trkpt>
      <trkpt lat="42.52285" lon="2.2835">
        <ele>917</ele>
        <time>2013-07-25T14:10:56Z</time>
      </trkpt>
      <trkpt lat="42.52283" lon="2.28347">
        <ele>916</ele>
        <time>2013-07-25T14:10:59Z</time>
      </trkpt>
      <trkpt lat="42.52282" lon="2.28347">
        <ele>916</ele>
        <time>2013-07-25T14:11:03Z</time>
      </trkpt>
      <trkpt lat="42.52286" lon="2.28348">
        <ele>916</ele>
        <time>2013-07-25T14:11:07Z</time>
      </trkpt>
      <trkpt lat="42.52289" lon="2.28349">
        <ele>916</ele>
        <time>2013-07-25T14:11:11Z</time>
      </trkpt>
      <trkpt lat="42.52293" lon="2.28351">
        <ele>924</ele>
        <time>2013-07-25T14:11:21Z</time>
      </trkpt>
      <trkpt lat="42.52288" lon="2.28349">
        <ele>925</ele>
        <time>2013-07-25T14:11:25Z</time>
      </trkpt>
      <trkpt lat="42.52285" lon="2.28349">
        <ele>925</ele>
        <time>2013-07-25T14:11:32Z</time>
      </trkpt>
      <trkpt lat="42.52284" lon="2.28347">
        <ele>925</ele>
        <time>2013-07-25T14:11:35Z</time>
      </trkpt>
      <trkpt lat="42.52286" lon="2.28348">
        <ele>924</ele>
        <time>2013-07-25T14:11:40Z</time>
      </trkpt>
      <trkpt lat="42.52286" lon="2.28349">
        <ele>924</ele>
        <time>2013-07-25T14:11:47Z</time>
      </trkpt>
      <trkpt lat="42.52287" lon="2.28352">
        <ele>924</ele>
        <time>2013-07-25T14:11:50Z</time>
      </trkpt>
      <trkpt lat="42.5229" lon="2.28352">
        <ele>924</ele>
        <time>2013-07-25T14:11:58Z</time>
      </trkpt>
      <trkpt lat="42.5229" lon="2.2835">
        <ele>923</ele>
        <time>2013-07-25T14:12:08Z</time>
      </trkpt>
      <trkpt lat="42.52291" lon="2.28349">
        <ele>922</ele>
        <time>2013-07-25T14:12:17Z</time>
      </trkpt>
      <trkpt lat="42.5229" lon="2.2835">
        <ele>922</ele>
        <time>2013-07-25T14:12:23Z</time>
      </trkpt>
      <trkpt lat="42.5229" lon="2.28352">
        <ele>922</ele>
        <time>2013-07-25T14:12:28Z</time>
      </trkpt>
      <trkpt lat="42.52291" lon="2.28357">
        <ele>922</ele>
        <time>2013-07-25T14:12:32Z</time>
      </trkpt>
      <trkpt lat="42.52291" lon="2.28353">
        <ele>922</ele>
        <time>2013-07-25T14:12:38Z</time>
      </trkpt>
      <trkpt lat="42.52293" lon="2.28347">
        <ele>922</ele>
        <time>2013-07-25T14:12:43Z</time>
      </trkpt>
      <trkpt lat="42.52292" lon="2.28346">
        <ele>922</ele>
        <time>2013-07-25T14:12:47Z</time>
      </trkpt>
      <trkpt lat="42.5229" lon="2.28344">
        <ele>922</ele>
        <time>2013-07-25T14:12:51Z</time>
      </trkpt>
      <trkpt lat="42.52288" lon="2.28342">
        <ele>922</ele>
        <time>2013-07-25T14:12:57Z</time>
      </trkpt>
      <trkpt lat="42.52285" lon="2.28339">
        <ele>922</ele>
        <time>2013-07-25T14:13:02Z</time>
      </trkpt>
      <trkpt lat="42.52287" lon="2.2834">
        <ele>921</ele>
        <time>2013-07-25T14:13:04Z</time>
      </trkpt>
      <trkpt lat="42.52288" lon="2.28342">
        <ele>921</ele>
        <time>2013-07-25T14:13:09Z</time>
      </trkpt>
      <trkpt lat="42.5229" lon="2.28343">
        <ele>921</ele>
        <time>2013-07-25T14:13:12Z</time>
      </trkpt>
      <trkpt lat="42.52292" lon="2.28345">
        <ele>921</ele>
        <time>2013-07-25T14:13:17Z</time>
      </trkpt>
      <trkpt lat="42.52289" lon="2.28341">
        <ele>921</ele>
        <time>2013-07-25T14:13:21Z</time>
      </trkpt>
      <trkpt lat="42.52292" lon="2.28337">
        <ele>921</ele>
        <time>2013-07-25T14:13:24Z</time>
      </trkpt>
      <trkpt lat="42.52293" lon="2.28335">
        <ele>921</ele>
        <time>2013-07-25T14:13:26Z</time>
      </trkpt>
      <trkpt lat="42.52295" lon="2.28333">
        <ele>921</ele>
        <time>2013-07-25T14:13:33Z</time>
      </trkpt>
      <trkpt lat="42.52297" lon="2.28335">
        <ele>921</ele>
        <time>2013-07-25T14:13:40Z</time>
      </trkpt>
      <trkpt lat="42.52296" lon="2.28337">
        <ele>921</ele>
        <time>2013-07-25T14:13:57Z</time>
      </trkpt>
      <trkpt lat="42.52295" lon="2.28341">
        <ele>921</ele>
        <time>2013-07-25T14:14:00Z</time>
      </trkpt>
      <trkpt lat="42.52293" lon="2.28343">
        <ele>921</ele>
        <time>2013-07-25T14:14:03Z</time>
      </trkpt>
      <trkpt lat="42.52292" lon="2.28347">
        <ele>921</ele>
        <time>2013-07-25T14:14:06Z</time>
      </trkpt>
      <trkpt lat="42.52291" lon="2.28348">
        <ele>921</ele>
        <time>2013-07-25T14:14:09Z</time>
      </trkpt>
      <trkpt lat="42.5229" lon="2.28351">
        <ele>921</ele>
        <time>2013-07-25T14:14:14Z</time>
      </trkpt>
      <trkpt lat="42.52287" lon="2.28349">
        <ele>921</ele>
        <time>2013-07-25T14:14:18Z</time>
      </trkpt>
      <trkpt lat="42.52288" lon="2.2835">
        <ele>919</ele>
        <time>2013-07-25T14:14:25Z</time>
      </trkpt>
      <trkpt lat="42.52288" lon="2.28353">
        <ele>919</ele>
        <time>2013-07-25T14:14:28Z</time>
      </trkpt>
      <trkpt lat="42.52288" lon="2.2836">
        <ele>919</ele>
        <time>2013-07-25T14:14:33Z</time>
      </trkpt>
      <trkpt lat="42.52287" lon="2.28362">
        <ele>919</ele>
        <time>2013-07-25T14:14:40Z</time>
      </trkpt>
      <trkpt lat="42.52288" lon="2.28363">
        <ele>919</ele>
        <time>2013-07-25T14:14:45Z</time>
      </trkpt>
      <trkpt lat="42.52287" lon="2.28366">
        <ele>920</ele>
        <time>2013-07-25T14:14:47Z</time>
      </trkpt>
      <trkpt lat="42.52284" lon="2.28365">
        <ele>922</ele>
        <time>2013-07-25T14:14:57Z</time>
      </trkpt>
      <trkpt lat="42.52284" lon="2.2836">
        <ele>923</ele>
        <time>2013-07-25T14:15:00Z</time>
      </trkpt>
      <trkpt lat="42.52282" lon="2.28353">
        <ele>924</ele>
        <time>2013-07-25T14:15:02Z</time>
      </trkpt>
      <trkpt lat="42.52283" lon="2.28349">
        <ele>924</ele>
        <time>2013-07-25T14:15:05Z</time>
      </trkpt>
      <trkpt lat="42.52287" lon="2.28353">
        <ele>924</ele>
        <time>2013-07-25T14:15:13Z</time>
      </trkpt>
      <trkpt lat="42.52289" lon="2.28351">
        <ele>924</ele>
        <time>2013-07-25T14:15:19Z</time>
      </trkpt>
      <trkpt lat="42.52289" lon="2.28351">
        <ele>924</ele>
        <time>2013-07-25T14:15:26Z</time>
      </trkpt>
      <trkpt lat="42.52291" lon="2.28353">
        <ele>924</ele>
        <time>2013-07-25T14:15:31Z</time>
      </trkpt>
      <trkpt lat="42.52291" lon="2.28349">
        <ele>924</ele>
        <time>2013-07-25T14:15:37Z</time>
      </trkpt>
      <trkpt lat="42.52291" lon="2.28347">
        <ele>924</ele>
        <time>2013-07-25T14:15:39Z</time>
      </trkpt>
      <trkpt lat="42.52287" lon="2.28342">
        <ele>924</ele>
        <time>2013-07-25T14:15:43Z</time>
      </trkpt>
      <trkpt lat="42.52284" lon="2.2834">
        <ele>921</ele>
        <time>2013-07-25T14:15:46Z</time>
      </trkpt>
      <trkpt lat="42.52285" lon="2.28341">
        <ele>920</ele>
        <time>2013-07-25T14:15:49Z</time>
      </trkpt>
      <trkpt lat="42.52284" lon="2.28346">
        <ele>917</ele>
        <time>2013-07-25T14:15:55Z</time>
      </trkpt>
      <trkpt lat="42.52285" lon="2.28347">
        <ele>917</ele>
        <time>2013-07-25T14:16:09Z</time>
      </trkpt>
      <trkpt lat="42.52286" lon="2.28347">
        <ele>917</ele>
        <time>2013-07-25T14:16:16Z</time>
      </trkpt>
      <trkpt lat="42.52287" lon="2.28345">
        <ele>920</ele>
        <time>2013-07-25T14:16:41Z</time>
      </trkpt>
      <trkpt lat="42.52287" lon="2.28346">
        <ele>922</ele>
        <time>2013-07-25T14:16:43Z</time>
      </trkpt>
      <trkpt lat="42.52287" lon="2.28348">
        <ele>922</ele>
        <time>2013-07-25T14:16:47Z</time>
      </trkpt>
      <trkpt lat="42.52286" lon="2.2835">
        <ele>922</ele>
        <time>2013-07-25T14:16:55Z</time>
      </trkpt>
      <trkpt lat="42.52284" lon="2.28349">
        <ele>919</ele>
        <time>2013-07-25T14:17:02Z</time>
      </trkpt>
      <trkpt lat="42.52281" lon="2.28343">
        <ele>919</ele>
        <time>2013-07-25T14:17:05Z</time>
      </trkpt>
      <trkpt lat="42.52283" lon="2.28347">
        <ele>919</ele>
        <time>2013-07-25T14:17:08Z</time>
      </trkpt>
      <trkpt lat="42.52284" lon="2.28349">
        <ele>919</ele>
        <time>2013-07-25T14:17:10Z</time>
      </trkpt>
      <trkpt lat="42.52285" lon="2.2835">
        <ele>919</ele>
        <time>2013-07-25T14:17:16Z</time>
      </trkpt>
      <trkpt lat="42.52286" lon="2.28349">
        <ele>918</ele>
        <time>2013-07-25T14:17:30Z</time>
      </trkpt>
      <trkpt lat="42.52287" lon="2.2835">
        <ele>914</ele>
        <time>2013-07-25T14:17:37Z</time>
      </trkpt>
      <trkpt lat="42.52288" lon="2.28351">
        <ele>914</ele>
        <time>2013-07-25T14:17:40Z</time>
      </trkpt>
      <trkpt lat="42.5229" lon="2.28352">
        <ele>914</ele>
        <time>2013-07-25T14:17:43Z</time>
      </trkpt>
      <trkpt lat="42.52291" lon="2.28352">
        <ele>914</ele>
        <time>2013-07-25T14:17:46Z</time>
      </trkpt>
      <trkpt lat="42.5229" lon="2.28351">
        <ele>914</ele>
        <time>2013-07-25T14:17:52Z</time>
      </trkpt>
      <trkpt lat="42.52288" lon="2.28351">
        <ele>915</ele>
        <time>2013-07-25T14:17:58Z</time>
      </trkpt>
      <trkpt lat="42.52289" lon="2.28349">
        <ele>915</ele>
        <time>2013-07-25T14:18:01Z</time>
      </trkpt>
      <trkpt lat="42.52293" lon="2.28346">
        <ele>916</ele>
        <time>2013-07-25T14:18:03Z</time>
      </trkpt>
      <trkpt lat="42.52296" lon="2.28343">
        <ele>918</ele>
        <time>2013-07-25T14:18:05Z</time>
      </trkpt>
      <trkpt lat="42.52298" lon="2.2834">
        <ele>922</ele>
        <time>2013-07-25T14:18:07Z</time>
      </trkpt>
      <trkpt lat="42.52297" lon="2.2834">
        <ele>936</ele>
        <time>2013-07-25T14:18:16Z</time>
      </trkpt>
      <trkpt lat="42.52297" lon="2.28342">
        <ele>938</ele>
        <time>2013-07-25T14:18:27Z</time>
      </trkpt>
      <trkpt lat="42.52296" lon="2.28347">
        <ele>938</ele>
        <time>2013-07-25T14:18:29Z</time>
      </trkpt>
      <trkpt lat="42.52295" lon="2.28353">
        <ele>938</ele>
        <time>2013-07-25T14:18:31Z</time>
      </trkpt>
      <trkpt lat="42.52288" lon="2.28372">
        <ele>935</ele>
        <time>2013-07-25T14:18:52Z</time>
      </trkpt>
      <trkpt lat="42.52253" lon="2.28401">
        <ele>933</ele>
        <time>2013-07-25T14:19:25Z</time>
      </trkpt>
      <trkpt lat="42.52253" lon="2.28404">
        <ele>929</ele>
        <time>2013-07-25T14:19:28Z</time>
      </trkpt>
      <trkpt lat="42.52251" lon="2.28404">
        <ele>926</ele>
        <time>2013-07-25T14:19:31Z</time>
      </trkpt>
      <trkpt lat="42.5225" lon="2.28412">
        <ele>917</ele>
        <time>2013-07-25T14:19:40Z</time>
      </trkpt>
      <trkpt lat="42.5225" lon="2.28417">
        <ele>915</ele>
        <time>2013-07-25T14:19:43Z</time>
      </trkpt>
      <trkpt lat="42.52251" lon="2.28426">
        <ele>911</ele>
        <time>2013-07-25T14:19:50Z</time>
      </trkpt>
      <trkpt lat="42.52249" lon="2.28426">
        <ele>914</ele>
        <time>2013-07-25T14:19:53Z</time>
      </trkpt>
      <trkpt lat="42.52248" lon="2.28424">
        <ele>915</ele>
        <time>2013-07-25T14:19:57Z</time>
      </trkpt>
      <trkpt lat="42.52245" lon="2.28427">
        <ele>917</ele>
        <time>2013-07-25T14:20:04Z</time>
      </trkpt>
      <trkpt lat="42.52247" lon="2.28434">
        <ele>920</ele>
        <time>2013-07-25T14:20:09Z</time>
      </trkpt>
      <trkpt lat="42.52245" lon="2.28439">
        <ele>923</ele>
        <time>2013-07-25T14:20:12Z</time>
      </trkpt>
      <trkpt lat="42.52245" lon="2.28441">
        <ele>924</ele>
        <time>2013-07-25T14:20:15Z</time>
      </trkpt>
      <trkpt lat="42.52196" lon="2.28502">
        <ele>925</ele>
        <time>2013-07-25T14:21:21Z</time>
      </trkpt>
      <trkpt lat="42.52186" lon="2.28495">
        <ele>926</ele>
        <time>2013-07-25T14:21:24Z</time>
      </trkpt>
      <trkpt lat="42.52181" lon="2.28488">
        <ele>930</ele>
        <time>2013-07-25T14:21:31Z</time>
      </trkpt>
      <trkpt lat="42.52182" lon="2.28486">
        <ele>932</ele>
        <time>2013-07-25T14:21:33Z</time>
      </trkpt>
      <trkpt lat="42.52032" lon="2.28586">
        <ele>934</ele>
        <time>2013-07-25T14:24:18Z</time>
      </trkpt>
      <trkpt lat="42.52006" lon="2.28566">
        <ele>931</ele>
        <time>2013-07-25T14:24:21Z</time>
      </trkpt>
      <trkpt lat="42.5197" lon="2.28541">
        <ele>915</ele>
        <time>2013-07-25T14:24:23Z</time>
      </trkpt>
      <trkpt lat="42.51975" lon="2.28561">
        <ele>888</ele>
        <time>2013-07-25T14:25:07Z</time>
      </trkpt>
      <trkpt lat="42.51959" lon="2.28579">
        <ele>874</ele>
        <time>2013-07-25T14:25:56Z</time>
      </trkpt>
      <trkpt lat="42.5195" lon="2.28582">
        <ele>862</ele>
        <time>2013-07-25T14:26:02Z</time>
      </trkpt>
      <trkpt lat="42.5195" lon="2.28585">
        <ele>844</ele>
        <time>2013-07-25T14:26:07Z</time>
      </trkpt>
      <trkpt lat="42.51959" lon="2.28633">
        <ele>844</ele>
        <time>2013-07-25T14:35:29Z</time>
      </trkpt>
      <trkpt lat="42.51808" lon="2.28565">
        <ele>864</ele>
        <time>2013-07-25T14:44:18Z</time>
      </trkpt>
      <trkpt lat="42.51809" lon="2.28567">
        <ele>900</ele>
        <time>2013-07-25T14:44:21Z</time>
      </trkpt>
      <trkpt lat="42.51791" lon="2.28577">
        <ele>1079</ele>
        <time>2013-07-25T14:44:28Z</time>
      </trkpt>
      <trkpt lat="42.5179" lon="2.28579">
        <ele>1134</ele>
        <time>2013-07-25T14:44:31Z</time>
      </trkpt>
      <trkpt lat="42.51793" lon="2.28585">
        <ele>1179</ele>
        <time>2013-07-25T14:44:43Z</time>
      </trkpt>
      <trkpt lat="42.51794" lon="2.28587">
        <ele>1216</ele>
        <time>2013-07-25T14:44:47Z</time>
      </trkpt>
      <trkpt lat="42.51795" lon="2.28589">
        <ele>1304</ele>
        <time>2013-07-25T14:44:50Z</time>
      </trkpt>
      <trkpt lat="42.51824" lon="2.28561">
        <ele>1319</ele>
        <time>2013-07-25T14:44:56Z</time>
      </trkpt>
      <trkpt lat="42.51828" lon="2.28558">
        <ele>1346</ele>
        <time>2013-07-25T14:44:58Z</time>
      </trkpt>
      <trkpt lat="42.51841" lon="2.28562">
        <ele>1359</ele>
        <time>2013-07-25T14:45:13Z</time>
      </trkpt>
      <trkpt lat="42.51838" lon="2.28568">
        <ele>1371</ele>
        <time>2013-07-25T14:45:17Z</time>
      </trkpt>
      <trkpt lat="42.51834" lon="2.28577">
        <ele>1389</ele>
        <time>2013-07-25T14:45:19Z</time>
      </trkpt>
      <trkpt lat="42.51829" lon="2.28592">
        <ele>1399</ele>
        <time>2013-07-25T14:45:24Z</time>
      </trkpt>
      <trkpt lat="42.51829" lon="2.28598">
        <ele>1401</ele>
        <time>2013-07-25T14:45:27Z</time>
      </trkpt>
      <trkpt lat="42.51826" lon="2.28606">
        <ele>1399</ele>
        <time>2013-07-25T14:45:30Z</time>
      </trkpt>
      <trkpt lat="42.5182" lon="2.2862">
        <ele>1391</ele>
        <time>2013-07-25T14:45:35Z</time>
      </trkpt>
      <trkpt lat="42.51819" lon="2.28628">
        <ele>1381</ele>
        <time>2013-07-25T14:45:37Z</time>
      </trkpt>
      <trkpt lat="42.51814" lon="2.28648">
        <ele>1364</ele>
        <time>2013-07-25T14:45:43Z</time>
      </trkpt>
      <trkpt lat="42.51798" lon="2.28717">
        <ele>1343</ele>
        <time>2013-07-25T14:45:47Z</time>
      </trkpt>
      <trkpt lat="42.51792" lon="2.2873">
        <ele>1290</ele>
        <time>2013-07-25T14:45:50Z</time>
      </trkpt>
      <trkpt lat="42.51787" lon="2.28736">
        <ele>1252</ele>
        <time>2013-07-25T14:45:54Z</time>
      </trkpt>
      <trkpt lat="42.51782" lon="2.28736">
        <ele>1205</ele>
        <time>2013-07-25T14:45:57Z</time>
      </trkpt>
      <trkpt lat="42.51778" lon="2.28733">
        <ele>1179</ele>
        <time>2013-07-25T14:46:03Z</time>
      </trkpt>
      <trkpt lat="42.51779" lon="2.28732">
        <ele>1156</ele>
        <time>2013-07-25T14:46:08Z</time>
      </trkpt>
      <trkpt lat="42.51781" lon="2.28728">
        <ele>1127</ele>
        <time>2013-07-25T14:46:11Z</time>
      </trkpt>
      <trkpt lat="42.51775" lon="2.28725">
        <ele>1119</ele>
        <time>2013-07-25T14:46:14Z</time>
      </trkpt>
      <trkpt lat="42.5177" lon="2.28722">
        <ele>1105</ele>
        <time>2013-07-25T14:46:18Z</time>
      </trkpt>
      <trkpt lat="42.51765" lon="2.28718">
        <ele>1086</ele>
        <time>2013-07-25T14:46:22Z</time>
      </trkpt>
      <trkpt lat="42.51759" lon="2.28713">
        <ele>1070</ele>
        <time>2013-07-25T14:46:25Z</time>
      </trkpt>
      <trkpt lat="42.51757" lon="2.28711">
        <ele>1065</ele>
        <time>2013-07-25T14:46:28Z</time>
      </trkpt>
      <trkpt lat="42.51756" lon="2.28708">
        <ele>1057</ele>
        <time>2013-07-25T14:46:30Z</time>
      </trkpt>
      <trkpt lat="42.51758" lon="2.28706">
        <ele>1050</ele>
        <time>2013-07-25T14:46:34Z</time>
      </trkpt>
      <trkpt lat="42.51753" lon="2.28702">
        <ele>1041</ele>
        <time>2013-07-25T14:46:38Z</time>
      </trkpt>
      <trkpt lat="42.51751" lon="2.28698">
        <ele>1033</ele>
        <time>2013-07-25T14:46:42Z</time>
      </trkpt>
      <trkpt lat="42.51748" lon="2.28694">
        <ele>1026</ele>
        <time>2013-07-25T14:46:46Z</time>
      </trkpt>
      <trkpt lat="42.51746" lon="2.2869">
        <ele>1020</ele>
        <time>2013-07-25T14:46:48Z</time>
      </trkpt>
      <trkpt lat="42.51745" lon="2.28687">
        <ele>1018</ele>
        <time>2013-07-25T14:46:51Z</time>
      </trkpt>
      <trkpt lat="42.51744" lon="2.28685">
        <ele>1013</ele>
        <time>2013-07-25T14:46:53Z</time>
      </trkpt>
      <trkpt lat="42.51741" lon="2.28681">
        <ele>1008</ele>
        <time>2013-07-25T14:46:56Z</time>
      </trkpt>
      <trkpt lat="42.51738" lon="2.28674">
        <ele>1002</ele>
        <time>2013-07-25T14:47:00Z</time>
      </trkpt>
      <trkpt lat="42.51736" lon="2.28673">
        <ele>1000</ele>
        <time>2013-07-25T14:47:02Z</time>
      </trkpt>
      <trkpt lat="42.51731" lon="2.28665">
        <ele>995</ele>
        <time>2013-07-25T14:47:07Z</time>
      </trkpt>
      <trkpt lat="42.51727" lon="2.2866">
        <ele>993</ele>
        <time>2013-07-25T14:47:10Z</time>
      </trkpt>
      <trkpt lat="42.51725" lon="2.28658">
        <ele>990</ele>
        <time>2013-07-25T14:47:13Z</time>
      </trkpt>
      <trkpt lat="42.51725" lon="2.28656">
        <ele>989</ele>
        <time>2013-07-25T14:47:15Z</time>
      </trkpt>
      <trkpt lat="42.51726" lon="2.28652">
        <ele>984</ele>
        <time>2013-07-25T14:47:27Z</time>
      </trkpt>
      <trkpt lat="42.51722" lon="2.28656">
        <ele>983</ele>
        <time>2013-07-25T14:47:30Z</time>
      </trkpt>
      <trkpt lat="42.51721" lon="2.28657">
        <ele>980</ele>
        <time>2013-07-25T14:47:38Z</time>
      </trkpt>
      <trkpt lat="42.5172" lon="2.28658">
        <ele>978</ele>
        <time>2013-07-25T14:47:42Z</time>
      </trkpt>
      <trkpt lat="42.51718" lon="2.28661">
        <ele>974</ele>
        <time>2013-07-25T14:47:47Z</time>
      </trkpt>
      <trkpt lat="42.51716" lon="2.28662">
        <ele>971</ele>
        <time>2013-07-25T14:47:53Z</time>
      </trkpt>
      <trkpt lat="42.51718" lon="2.28661">
        <ele>967</ele>
        <time>2013-07-25T14:48:01Z</time>
      </trkpt>
      <trkpt lat="42.5172" lon="2.28662">
        <ele>967</ele>
        <time>2013-07-25T14:48:05Z</time>
      </trkpt>
      <trkpt lat="42.51719" lon="2.28661">
        <ele>967</ele>
        <time>2013-07-25T14:48:10Z</time>
      </trkpt>
      <trkpt lat="42.51717" lon="2.28659">
        <ele>967</ele>
        <time>2013-07-25T14:48:13Z</time>
      </trkpt>
      <trkpt lat="42.51717" lon="2.28657">
        <ele>967</ele>
        <time>2013-07-25T14:48:15Z</time>
      </trkpt>
      <trkpt lat="42.5166" lon="2.28648">
        <ele>970</ele>
        <time>2013-07-25T14:49:15Z</time>
      </trkpt>
      <trkpt lat="42.51661" lon="2.28646">
        <ele>970</ele>
        <time>2013-07-25T14:49:18Z</time>
      </trkpt>
      <trkpt lat="42.51646" lon="2.28655">
        <ele>968</ele>
        <time>2013-07-25T14:49:57Z</time>
      </trkpt>
      <trkpt lat="42.51643" lon="2.28654">
        <ele>967</ele>
        <time>2013-07-25T14:50:00Z</time>
      </trkpt>
      <trkpt lat="42.51636" lon="2.28653">
        <ele>966</ele>
        <time>2013-07-25T14:50:08Z</time>
      </trkpt>
      <trkpt lat="42.51623" lon="2.28626">
        <ele>963</ele>
        <time>2013-07-25T14:50:30Z</time>
      </trkpt>
      <trkpt lat="42.51625" lon="2.2863">
        <ele>961</ele>
        <time>2013-07-25T14:50:33Z</time>
      </trkpt>
      <trkpt lat="42.5163" lon="2.28604">
        <ele>961</ele>
        <time>2013-07-25T14:50:38Z</time>
      </trkpt>
      <trkpt lat="42.51635" lon="2.286">
        <ele>975</ele>
        <time>2013-07-25T14:50:40Z</time>
      </trkpt>
      <trkpt lat="42.51636" lon="2.28602">
        <ele>989</ele>
        <time>2013-07-25T14:50:44Z</time>
      </trkpt>
      <trkpt lat="42.51638" lon="2.28605">
        <ele>1002</ele>
        <time>2013-07-25T14:50:47Z</time>
      </trkpt>
      <trkpt lat="42.51635" lon="2.28608">
        <ele>1008</ele>
        <time>2013-07-25T14:50:50Z</time>
      </trkpt>
      <trkpt lat="42.51638" lon="2.28608">
        <ele>1020</ele>
        <time>2013-07-25T14:50:52Z</time>
      </trkpt>
      <trkpt lat="42.51638" lon="2.28608">
        <ele>1030</ele>
        <time>2013-07-25T14:50:56Z</time>
      </trkpt>
      <trkpt lat="42.51634" lon="2.28606">
        <ele>1043</ele>
        <time>2013-07-25T14:50:59Z</time>
      </trkpt>
      <trkpt lat="42.51633" lon="2.28605">
        <ele>1046</ele>
        <time>2013-07-25T14:51:02Z</time>
      </trkpt>
      <trkpt lat="42.51631" lon="2.28604">
        <ele>1054</ele>
        <time>2013-07-25T14:51:04Z</time>
      </trkpt>
      <trkpt lat="42.51622" lon="2.28601">
        <ele>1058</ele>
        <time>2013-07-25T14:51:21Z</time>
      </trkpt>
      <trkpt lat="42.51613" lon="2.28609">
        <ele>1061</ele>
        <time>2013-07-25T14:51:24Z</time>
      </trkpt>
      <trkpt lat="42.51609" lon="2.2861">
        <ele>1067</ele>
        <time>2013-07-25T14:51:27Z</time>
      </trkpt>
      <trkpt lat="42.51604" lon="2.28618">
        <ele>1071</ele>
        <time>2013-07-25T14:51:29Z</time>
      </trkpt>
      <trkpt lat="42.51604" lon="2.28623">
        <ele>1076</ele>
        <time>2013-07-25T14:51:32Z</time>
      </trkpt>
      <trkpt lat="42.51604" lon="2.28631">
        <ele>1077</ele>
        <time>2013-07-25T14:51:36Z</time>
      </trkpt>
      <trkpt lat="42.51604" lon="2.28636">
        <ele>1078</ele>
        <time>2013-07-25T14:51:39Z</time>
      </trkpt>
      <trkpt lat="42.516" lon="2.28642">
        <ele>1077</ele>
        <time>2013-07-25T14:51:42Z</time>
      </trkpt>
      <trkpt lat="42.51594" lon="2.28648">
        <ele>1055</ele>
        <time>2013-07-25T14:51:49Z</time>
      </trkpt>
      <trkpt lat="42.51594" lon="2.2865">
        <ele>1047</ele>
        <time>2013-07-25T14:51:53Z</time>
      </trkpt>
      <trkpt lat="42.51594" lon="2.28651">
        <ele>1035</ele>
        <time>2013-07-25T14:51:56Z</time>
      </trkpt>
      <trkpt lat="42.51588" lon="2.28657">
        <ele>1031</ele>
        <time>2013-07-25T14:51:59Z</time>
      </trkpt>
      <trkpt lat="42.51584" lon="2.28662">
        <ele>1023</ele>
        <time>2013-07-25T14:52:04Z</time>
      </trkpt>
      <trkpt lat="42.51588" lon="2.28661">
        <ele>1015</ele>
        <time>2013-07-25T14:52:06Z</time>
      </trkpt>
      <trkpt lat="42.51594" lon="2.28656">
        <ele>1009</ele>
        <time>2013-07-25T14:52:09Z</time>
      </trkpt>
      <trkpt lat="42.51597" lon="2.28654">
        <ele>1006</ele>
        <time>2013-07-25T14:52:12Z</time>
      </trkpt>
      <trkpt lat="42.516" lon="2.28652">
        <ele>1006</ele>
        <time>2013-07-25T14:52:15Z</time>
      </trkpt>
      <trkpt lat="42.51603" lon="2.28644">
        <ele>1008</ele>
        <time>2013-07-25T14:52:21Z</time>
      </trkpt>
      <trkpt lat="42.51603" lon="2.28646">
        <ele>1014</ele>
        <time>2013-07-25T14:52:24Z</time>
      </trkpt>
      <trkpt lat="42.51603" lon="2.28648">
        <ele>1016</ele>
        <time>2013-07-25T14:52:27Z</time>
      </trkpt>
      <trkpt lat="42.51603" lon="2.2865">
        <ele>1020</ele>
        <time>2013-07-25T14:52:30Z</time>
      </trkpt>
      <trkpt lat="42.51604" lon="2.28653">
        <ele>1022</ele>
        <time>2013-07-25T14:52:34Z</time>
      </trkpt>
      <trkpt lat="42.51604" lon="2.28656">
        <ele>1024</ele>
        <time>2013-07-25T14:52:36Z</time>
      </trkpt>
      <trkpt lat="42.51601" lon="2.2866">
        <ele>1026</ele>
        <time>2013-07-25T14:52:39Z</time>
      </trkpt>
      <trkpt lat="42.51595" lon="2.28658">
        <ele>1032</ele>
        <time>2013-07-25T14:52:43Z</time>
      </trkpt>
      <trkpt lat="42.51591" lon="2.28647">
        <ele>1039</ele>
        <time>2013-07-25T14:52:48Z</time>
      </trkpt>
      <trkpt lat="42.51582" lon="2.28631">
        <ele>1045</ele>
        <time>2013-07-25T14:52:53Z</time>
      </trkpt>
      <trkpt lat="42.51577" lon="2.28626">
        <ele>1049</ele>
        <time>2013-07-25T14:52:58Z</time>
      </trkpt>
      <trkpt lat="42.51577" lon="2.28623">
        <ele>1055</ele>
        <time>2013-07-25T14:53:01Z</time>
      </trkpt>
      <trkpt lat="42.51573" lon="2.2862">
        <ele>1057</ele>
        <time>2013-07-25T14:53:04Z</time>
      </trkpt>
      <trkpt lat="42.51577" lon="2.2861">
        <ele>1060</ele>
        <time>2013-07-25T14:53:14Z</time>
      </trkpt>
      <trkpt lat="42.51579" lon="2.28611">
        <ele>1062</ele>
        <time>2013-07-25T14:53:17Z</time>
      </trkpt>
      <trkpt lat="42.51582" lon="2.28609">
        <ele>1074</ele>
        <time>2013-07-25T14:53:28Z</time>
      </trkpt>
      <trkpt lat="42.51568" lon="2.28616">
        <ele>1078</ele>
        <time>2013-07-25T14:53:32Z</time>
      </trkpt>
      <trkpt lat="42.51566" lon="2.28605">
        <ele>1084</ele>
        <time>2013-07-25T14:53:40Z</time>
      </trkpt>
      <trkpt lat="42.51566" lon="2.28608">
        <ele>1086</ele>
        <time>2013-07-25T14:53:44Z</time>
      </trkpt>
      <trkpt lat="42.51571" lon="2.28607">
        <ele>1088</ele>
        <time>2013-07-25T14:53:46Z</time>
      </trkpt>
      <trkpt lat="42.51574" lon="2.28607">
        <ele>1089</ele>
        <time>2013-07-25T14:53:49Z</time>
      </trkpt>
      <trkpt lat="42.51574" lon="2.28612">
        <ele>1091</ele>
        <time>2013-07-25T14:53:55Z</time>
      </trkpt>
      <trkpt lat="42.51577" lon="2.28617">
        <ele>1093</ele>
        <time>2013-07-25T14:53:58Z</time>
      </trkpt>
      <trkpt lat="42.51577" lon="2.28621">
        <ele>1094</ele>
        <time>2013-07-25T14:54:01Z</time>
      </trkpt>
      <trkpt lat="42.51575" lon="2.28622">
        <ele>1094</ele>
        <time>2013-07-25T14:54:04Z</time>
      </trkpt>
      <trkpt lat="42.51574" lon="2.28625">
        <ele>1094</ele>
        <time>2013-07-25T14:54:08Z</time>
      </trkpt>
      <trkpt lat="42.51572" lon="2.28625">
        <ele>1093</ele>
        <time>2013-07-25T14:54:10Z</time>
      </trkpt>
      <trkpt lat="42.51582" lon="2.28655">
        <ele>1091</ele>
        <time>2013-07-25T14:54:59Z</time>
      </trkpt>
      <trkpt lat="42.5158" lon="2.2865">
        <ele>1089</ele>
        <time>2013-07-25T14:55:02Z</time>
      </trkpt>
      <trkpt lat="42.51577" lon="2.28641">
        <ele>1086</ele>
        <time>2013-07-25T14:55:13Z</time>
      </trkpt>
      <trkpt lat="42.51574" lon="2.28636">
        <ele>1083</ele>
        <time>2013-07-25T14:55:16Z</time>
      </trkpt>
      <trkpt lat="42.51569" lon="2.28635">
        <ele>1077</ele>
        <time>2013-07-25T14:55:19Z</time>
      </trkpt>
      <trkpt lat="42.51562" lon="2.28643">
        <ele>1073</ele>
        <time>2013-07-25T14:55:26Z</time>
      </trkpt>
      <trkpt lat="42.5156" lon="2.28642">
        <ele>1070</ele>
        <time>2013-07-25T14:55:29Z</time>
      </trkpt>
      <trkpt lat="42.51561" lon="2.28635">
        <ele>1059</ele>
        <time>2013-07-25T14:55:34Z</time>
      </trkpt>
      <trkpt lat="42.51562" lon="2.28634">
        <ele>1052</ele>
        <time>2013-07-25T14:55:36Z</time>
      </trkpt>
      <trkpt lat="42.51562" lon="2.28632">
        <ele>1047</ele>
        <time>2013-07-25T14:55:40Z</time>
      </trkpt>
      <trkpt lat="42.51562" lon="2.2863">
        <ele>1043</ele>
        <time>2013-07-25T14:55:42Z</time>
      </trkpt>
      <trkpt lat="42.51563" lon="2.28628">
        <ele>1042</ele>
        <time>2013-07-25T14:55:46Z</time>
      </trkpt>
      <trkpt lat="42.51563" lon="2.28624">
        <ele>1041</ele>
        <time>2013-07-25T14:55:52Z</time>
      </trkpt>
      <trkpt lat="42.51568" lon="2.28618">
        <ele>1042</ele>
        <time>2013-07-25T14:55:54Z</time>
      </trkpt>
      <trkpt lat="42.51571" lon="2.28614">
        <ele>1044</ele>
        <time>2013-07-25T14:55:58Z</time>
      </trkpt>
      <trkpt lat="42.51578" lon="2.2861">
        <ele>1050</ele>
        <time>2013-07-25T14:56:00Z</time>
      </trkpt>
      <trkpt lat="42.5158" lon="2.2861">
        <ele>1054</ele>
        <time>2013-07-25T14:56:05Z</time>
      </trkpt>
      <trkpt lat="42.51586" lon="2.28609">
        <ele>1065</ele>
        <time>2013-07-25T14:56:07Z</time>
      </trkpt>
      <trkpt lat="42.51615" lon="2.28556">
        <ele>1078</ele>
        <time>2013-07-25T14:56:52Z</time>
      </trkpt>
      <trkpt lat="42.51607" lon="2.2856">
        <ele>1085</ele>
        <time>2013-07-25T14:56:56Z</time>
      </trkpt>
      <trkpt lat="42.51612" lon="2.28568">
        <ele>1091</ele>
        <time>2013-07-25T14:57:04Z</time>
      </trkpt>
      <trkpt lat="42.51618" lon="2.28573">
        <ele>1096</ele>
        <time>2013-07-25T14:57:08Z</time>
      </trkpt>
      <trkpt lat="42.51623" lon="2.2858">
        <ele>1103</ele>
        <time>2013-07-25T14:57:10Z</time>
      </trkpt>
      <trkpt lat="42.51626" lon="2.28584">
        <ele>1106</ele>
        <time>2013-07-25T14:57:14Z</time>
      </trkpt>
      <trkpt lat="42.51628" lon="2.2858">
        <ele>1110</ele>
        <time>2013-07-25T14:57:21Z</time>
      </trkpt>
      <trkpt lat="42.51629" lon="2.28579">
        <ele>1112</ele>
        <time>2013-07-25T14:57:23Z</time>
      </trkpt>
      <trkpt lat="42.51631" lon="2.28578">
        <ele>1113</ele>
        <time>2013-07-25T14:57:27Z</time>
      </trkpt>
      <trkpt lat="42.51645" lon="2.28576">
        <ele>1117</ele>
        <time>2013-07-25T14:57:33Z</time>
      </trkpt>
      <trkpt lat="42.51646" lon="2.28553">
        <ele>1118</ele>
        <time>2013-07-25T14:58:18Z</time>
      </trkpt>
      <trkpt lat="42.51649" lon="2.28544">
        <ele>1118</ele>
        <time>2013-07-25T14:58:21Z</time>
      </trkpt>
      <trkpt lat="42.51651" lon="2.28543">
        <ele>1117</ele>
        <time>2013-07-25T14:58:24Z</time>
      </trkpt>
      <trkpt lat="42.51655" lon="2.28545">
        <ele>1115</ele>
        <time>2013-07-25T14:58:27Z</time>
      </trkpt>
      <trkpt lat="42.51661" lon="2.28539">
        <ele>1108</ele>
        <time>2013-07-25T14:58:33Z</time>
      </trkpt>
      <trkpt lat="42.51668" lon="2.28538">
        <ele>1109</ele>
        <time>2013-07-25T14:58:40Z</time>
      </trkpt>
      <trkpt lat="42.51671" lon="2.28538">
        <ele>1119</ele>
        <time>2013-07-25T14:58:52Z</time>
      </trkpt>
      <trkpt lat="42.51672" lon="2.28536">
        <ele>1129</ele>
        <time>2013-07-25T14:58:56Z</time>
      </trkpt>
      <trkpt lat="42.51675" lon="2.28534">
        <ele>1142</ele>
        <time>2013-07-25T14:59:02Z</time>
      </trkpt>
      <trkpt lat="42.51683" lon="2.28527">
        <ele>1150</ele>
        <time>2013-07-25T14:59:07Z</time>
      </trkpt>
      <trkpt lat="42.51796" lon="2.28657">
        <ele>1157</ele>
        <time>2013-07-25T14:59:47Z</time>
      </trkpt>
      <trkpt lat="42.518" lon="2.28661">
        <ele>1160</ele>
        <time>2013-07-25T14:59:50Z</time>
      </trkpt>
      <trkpt lat="42.51806" lon="2.28662">
        <ele>1162</ele>
        <time>2013-07-25T14:59:54Z</time>
      </trkpt>
      <trkpt lat="42.51809" lon="2.28663">
        <ele>1164</ele>
        <time>2013-07-25T14:59:57Z</time>
      </trkpt>
      <trkpt lat="42.51808" lon="2.28667">
        <ele>1168</ele>
        <time>2013-07-25T15:00:02Z</time>
      </trkpt>
      <trkpt lat="42.51803" lon="2.28665">
        <ele>1172</ele>
        <time>2013-07-25T15:00:09Z</time>
      </trkpt>
      <trkpt lat="42.51797" lon="2.28669">
        <ele>1166</ele>
        <time>2013-07-25T15:00:12Z</time>
      </trkpt>
      <trkpt lat="42.51794" lon="2.28671">
        <ele>1163</ele>
        <time>2013-07-25T15:00:16Z</time>
      </trkpt>
      <trkpt lat="42.51797" lon="2.28683">
        <ele>1155</ele>
        <time>2013-07-25T15:00:20Z</time>
      </trkpt>
      <trkpt lat="42.51805" lon="2.28689">
        <ele>1148</ele>
        <time>2013-07-25T15:00:25Z</time>
      </trkpt>
      <trkpt lat="42.51809" lon="2.28695">
        <ele>1146</ele>
        <time>2013-07-25T15:00:28Z</time>
      </trkpt>
      <trkpt lat="42.51811" lon="2.28699">
        <ele>1147</ele>
        <time>2013-07-25T15:00:32Z</time>
      </trkpt>
      <trkpt lat="42.51821" lon="2.28706">
        <ele>1150</ele>
        <time>2013-07-25T15:00:34Z</time>
      </trkpt>
      <trkpt lat="42.51833" lon="2.28714">
        <ele>1155</ele>
        <time>2013-07-25T15:00:38Z</time>
      </trkpt>
      <trkpt lat="42.51834" lon="2.28717">
        <ele>1162</ele>
        <time>2013-07-25T15:00:41Z</time>
      </trkpt>
      <trkpt lat="42.51835" lon="2.2872">
        <ele>1166</ele>
        <time>2013-07-25T15:00:44Z</time>
      </trkpt>
      <trkpt lat="42.51839" lon="2.28724">
        <ele>1177</ele>
        <time>2013-07-25T15:00:46Z</time>
      </trkpt>
      <trkpt lat="42.51839" lon="2.28727">
        <ele>1180</ele>
        <time>2013-07-25T15:00:51Z</time>
      </trkpt>
      <trkpt lat="42.51832" lon="2.28733">
        <ele>1184</ele>
        <time>2013-07-25T15:00:54Z</time>
      </trkpt>
      <trkpt lat="42.51825" lon="2.28739">
        <ele>1183</ele>
        <time>2013-07-25T15:00:58Z</time>
      </trkpt>
      <trkpt lat="42.51817" lon="2.28743">
        <ele>1178</ele>
        <time>2013-07-25T15:01:04Z</time>
      </trkpt>
      <trkpt lat="42.5181" lon="2.28751">
        <ele>1160</ele>
        <time>2013-07-25T15:01:09Z</time>
      </trkpt>
      <trkpt lat="42.5181" lon="2.28757">
        <ele>1133</ele>
        <time>2013-07-25T15:01:16Z</time>
      </trkpt>
      <trkpt lat="42.51804" lon="2.2876">
        <ele>1117</ele>
        <time>2013-07-25T15:01:19Z</time>
      </trkpt>
      <trkpt lat="42.51802" lon="2.28761">
        <ele>1112</ele>
        <time>2013-07-25T15:01:22Z</time>
      </trkpt>
      <trkpt lat="42.51802" lon="2.28764">
        <ele>1101</ele>
        <time>2013-07-25T15:01:25Z</time>
      </trkpt>
      <trkpt lat="42.518" lon="2.28768">
        <ele>1096</ele>
        <time>2013-07-25T15:01:29Z</time>
      </trkpt>
      <trkpt lat="42.51784" lon="2.28763">
        <ele>1086</ele>
        <time>2013-07-25T15:01:36Z</time>
      </trkpt>
      <trkpt lat="42.51775" lon="2.28756">
        <ele>1074</ele>
        <time>2013-07-25T15:01:41Z</time>
      </trkpt>
      <trkpt lat="42.51779" lon="2.28734">
        <ele>1043</ele>
        <time>2013-07-25T15:02:01Z</time>
      </trkpt>
      <trkpt lat="42.51782" lon="2.28731">
        <ele>1035</ele>
        <time>2013-07-25T15:02:04Z</time>
      </trkpt>
      <trkpt lat="42.51787" lon="2.28727">
        <ele>1013</ele>
        <time>2013-07-25T15:02:11Z</time>
      </trkpt>
      <trkpt lat="42.51792" lon="2.28727">
        <ele>1003</ele>
        <time>2013-07-25T15:02:15Z</time>
      </trkpt>
      <trkpt lat="42.51794" lon="2.28728">
        <ele>996</ele>
        <time>2013-07-25T15:02:18Z</time>
      </trkpt>
      <trkpt lat="42.51796" lon="2.28723">
        <ele>991</ele>
        <time>2013-07-25T15:02:23Z</time>
      </trkpt>
      <trkpt lat="42.51791" lon="2.28719">
        <ele>990</ele>
        <time>2013-07-25T15:02:32Z</time>
      </trkpt>
      <trkpt lat="42.51793" lon="2.28716">
        <ele>990</ele>
        <time>2013-07-25T15:02:36Z</time>
      </trkpt>
      <trkpt lat="42.51801" lon="2.28717">
        <ele>992</ele>
        <time>2013-07-25T15:02:43Z</time>
      </trkpt>
      <trkpt lat="42.51804" lon="2.28719">
        <ele>995</ele>
        <time>2013-07-25T15:02:47Z</time>
      </trkpt>
      <trkpt lat="42.51803" lon="2.28716">
        <ele>997</ele>
        <time>2013-07-25T15:02:49Z</time>
      </trkpt>
      <trkpt lat="42.51801" lon="2.28716">
        <ele>998</ele>
        <time>2013-07-25T15:02:53Z</time>
      </trkpt>
      <trkpt lat="42.51802" lon="2.28715">
        <ele>999</ele>
        <time>2013-07-25T15:03:00Z</time>
      </trkpt>
      <trkpt lat="42.51805" lon="2.2871">
        <ele>1007</ele>
        <time>2013-07-25T15:03:07Z</time>
      </trkpt>
      <trkpt lat="42.51807" lon="2.28707">
        <ele>1014</ele>
        <time>2013-07-25T15:03:14Z</time>
      </trkpt>
      <trkpt lat="42.51809" lon="2.28705">
        <ele>1016</ele>
        <time>2013-07-25T15:03:16Z</time>
      </trkpt>
      <trkpt lat="42.51811" lon="2.28704">
        <ele>1018</ele>
        <time>2013-07-25T15:03:20Z</time>
      </trkpt>
      <trkpt lat="42.51815" lon="2.28697">
        <ele>1022</ele>
        <time>2013-07-25T15:03:22Z</time>
      </trkpt>
      <trkpt lat="42.51816" lon="2.28692">
        <ele>1025</ele>
        <time>2013-07-25T15:03:28Z</time>
      </trkpt>
      <trkpt lat="42.51939" lon="2.2856">
        <ele>1032</ele>
        <time>2013-07-25T15:05:34Z</time>
      </trkpt>
      <trkpt lat="42.51939" lon="2.28556">
        <ele>1038</ele>
        <time>2013-07-25T15:05:37Z</time>
      </trkpt>
      <trkpt lat="42.51937" lon="2.28552">
        <ele>1047</ele>
        <time>2013-07-25T15:05:43Z</time>
      </trkpt>
      <trkpt lat="42.51936" lon="2.28549">
        <ele>1071</ele>
        <time>2013-07-25T15:05:48Z</time>
      </trkpt>
      <trkpt lat="42.51936" lon="2.28546">
        <ele>1096</ele>
        <time>2013-07-25T15:05:50Z</time>
      </trkpt>
      <trkpt lat="42.51935" lon="2.28544">
        <ele>1116</ele>
        <time>2013-07-25T15:05:53Z</time>
      </trkpt>
      <trkpt lat="42.51934" lon="2.28543">
        <ele>1136</ele>
        <time>2013-07-25T15:05:59Z</time>
      </trkpt>
      <trkpt lat="42.51933" lon="2.28546">
        <ele>1150</ele>
        <time>2013-07-25T15:06:06Z</time>
      </trkpt>
      <trkpt lat="42.51932" lon="2.28551">
        <ele>1154</ele>
        <time>2013-07-25T15:06:10Z</time>
      </trkpt>
      <trkpt lat="42.5193" lon="2.28553">
        <ele>1156</ele>
        <time>2013-07-25T15:06:12Z</time>
      </trkpt>
      <trkpt lat="42.51932" lon="2.28552">
        <ele>1159</ele>
        <time>2013-07-25T15:06:15Z</time>
      </trkpt>
      <trkpt lat="42.51932" lon="2.2855">
        <ele>1161</ele>
        <time>2013-07-25T15:06:20Z</time>
      </trkpt>
      <trkpt lat="42.51933" lon="2.28549">
        <ele>1164</ele>
        <time>2013-07-25T15:06:22Z</time>
      </trkpt>
      <trkpt lat="42.51936" lon="2.28546">
        <ele>1168</ele>
        <time>2013-07-25T15:06:30Z</time>
      </trkpt>
      <trkpt lat="42.51936" lon="2.28544">
        <ele>1172</ele>
        <time>2013-07-25T15:06:35Z</time>
      </trkpt>
      <trkpt lat="42.51936" lon="2.28542">
        <ele>1174</ele>
        <time>2013-07-25T15:06:38Z</time>
      </trkpt>
      <trkpt lat="42.51932" lon="2.28536">
        <ele>1175</ele>
        <time>2013-07-25T15:06:50Z</time>
      </trkpt>
      <trkpt lat="42.51931" lon="2.28534">
        <ele>1176</ele>
        <time>2013-07-25T15:06:57Z</time>
      </trkpt>
      <trkpt lat="42.51931" lon="2.28532">
        <ele>1178</ele>
        <time>2013-07-25T15:07:01Z</time>
      </trkpt>
      <trkpt lat="42.51931" lon="2.28531">
        <ele>1181</ele>
        <time>2013-07-25T15:07:03Z</time>
      </trkpt>
      <trkpt lat="42.51932" lon="2.28528">
        <ele>1183</ele>
        <time>2013-07-25T15:07:07Z</time>
      </trkpt>
      <trkpt lat="42.51933" lon="2.28526">
        <ele>1185</ele>
        <time>2013-07-25T15:07:11Z</time>
      </trkpt>
      <trkpt lat="42.51931" lon="2.28526">
        <ele>1188</ele>
        <time>2013-07-25T15:07:14Z</time>
      </trkpt>
      <trkpt lat="42.51932" lon="2.28526">
        <ele>1189</ele>
        <time>2013-07-25T15:07:17Z</time>
      </trkpt>
      <trkpt lat="42.51934" lon="2.28526">
        <ele>1191</ele>
        <time>2013-07-25T15:07:20Z</time>
      </trkpt>
      <trkpt lat="42.51932" lon="2.28527">
        <ele>1195</ele>
        <time>2013-07-25T15:07:26Z</time>
      </trkpt>
      <trkpt lat="42.51932" lon="2.28528">
        <ele>1195</ele>
        <time>2013-07-25T15:07:30Z</time>
      </trkpt>
      <trkpt lat="42.51931" lon="2.28529">
        <ele>1195</ele>
        <time>2013-07-25T15:07:35Z</time>
      </trkpt>
      <trkpt lat="42.51932" lon="2.2853">
        <ele>1195</ele>
        <time>2013-07-25T15:07:38Z</time>
      </trkpt>
      <trkpt lat="42.51934" lon="2.2853">
        <ele>1195</ele>
        <time>2013-07-25T15:07:41Z</time>
      </trkpt>
      <trkpt lat="42.51936" lon="2.28529">
        <ele>1195</ele>
        <time>2013-07-25T15:07:52Z</time>
      </trkpt>
      <trkpt lat="42.51936" lon="2.28528">
        <ele>1195</ele>
        <time>2013-07-25T15:08:05Z</time>
      </trkpt>
      <trkpt lat="42.51937" lon="2.28529">
        <ele>1195</ele>
        <time>2013-07-25T15:08:08Z</time>
      </trkpt>
      <trkpt lat="42.51936" lon="2.28535">
        <ele>1195</ele>
        <time>2013-07-25T15:08:15Z</time>
      </trkpt>
      <trkpt lat="42.51936" lon="2.28538">
        <ele>1195</ele>
        <time>2013-07-25T15:08:19Z</time>
      </trkpt>
      <trkpt lat="42.51927" lon="2.28548">
        <ele>1194</ele>
        <time>2013-07-25T15:12:34Z</time>
      </trkpt>
      <trkpt lat="42.51929" lon="2.28531">
        <ele>1193</ele>
        <time>2013-07-25T15:12:37Z</time>
      </trkpt>
      <trkpt lat="42.51927" lon="2.28517">
        <ele>1194</ele>
        <time>2013-07-25T15:12:39Z</time>
      </trkpt>
      <trkpt lat="42.5193" lon="2.28515">
        <ele>1196</ele>
        <time>2013-07-25T15:12:44Z</time>
      </trkpt>
      <trkpt lat="42.52038" lon="2.28517">
        <ele>1198</ele>
        <time>2013-07-25T15:15:10Z</time>
      </trkpt>
      <trkpt lat="42.52039" lon="2.28515">
        <ele>1199</ele>
        <time>2013-07-25T15:15:14Z</time>
      </trkpt>
      <trkpt lat="42.5204" lon="2.28511">
        <ele>1195</ele>
        <time>2013-07-25T15:15:17Z</time>
      </trkpt>
      <trkpt lat="42.52043" lon="2.28509">
        <ele>1193</ele>
        <time>2013-07-25T15:15:20Z</time>
      </trkpt>
      <trkpt lat="42.52046" lon="2.28506">
        <ele>1191</ele>
        <time>2013-07-25T15:15:22Z</time>
      </trkpt>
      <trkpt lat="42.52049" lon="2.28502">
        <ele>1190</ele>
        <time>2013-07-25T15:15:24Z</time>
      </trkpt>
      <trkpt lat="42.52051" lon="2.28499">
        <ele>1190</ele>
        <time>2013-07-25T15:15:26Z</time>
      </trkpt>
      <trkpt lat="42.52053" lon="2.28498">
        <ele>1190</ele>
        <time>2013-07-25T15:15:29Z</time>
      </trkpt>
      <trkpt lat="42.52056" lon="2.28519">
        <ele>1187</ele>
        <time>2013-07-25T15:15:32Z</time>
      </trkpt>
      <trkpt lat="42.52059" lon="2.28531">
        <ele>1183</ele>
        <time>2013-07-25T15:15:34Z</time>
      </trkpt>
      <trkpt lat="42.52062" lon="2.28536">
        <ele>1171</ele>
        <time>2013-07-25T15:15:36Z</time>
      </trkpt>
      <trkpt lat="42.52065" lon="2.28542">
        <ele>1156</ele>
        <time>2013-07-25T15:15:40Z</time>
      </trkpt>
      <trkpt lat="42.52069" lon="2.28547">
        <ele>1142</ele>
        <time>2013-07-25T15:15:42Z</time>
      </trkpt>
      <trkpt lat="42.52073" lon="2.28553">
        <ele>1130</ele>
        <time>2013-07-25T15:15:46Z</time>
      </trkpt>
      <trkpt lat="42.52077" lon="2.28557">
        <ele>1114</ele>
        <time>2013-07-25T15:15:50Z</time>
      </trkpt>
      <trkpt lat="42.52079" lon="2.28559">
        <ele>1106</ele>
        <time>2013-07-25T15:15:52Z</time>
      </trkpt>
      <trkpt lat="42.52083" lon="2.28561">
        <ele>1103</ele>
        <time>2013-07-25T15:15:54Z</time>
      </trkpt>
      <trkpt lat="42.52086" lon="2.28561">
        <ele>1099</ele>
        <time>2013-07-25T15:15:56Z</time>
      </trkpt>
      <trkpt lat="42.5209" lon="2.28562">
        <ele>1098</ele>
        <time>2013-07-25T15:16:00Z</time>
      </trkpt>
      <trkpt lat="42.52093" lon="2.28566">
        <ele>1096</ele>
        <time>2013-07-25T15:16:06Z</time>
      </trkpt>
      <trkpt lat="42.52094" lon="2.28581">
        <ele>1089</ele>
        <time>2013-07-25T15:16:23Z</time>
      </trkpt>
      <trkpt lat="42.52092" lon="2.28569">
        <ele>1086</ele>
        <time>2013-07-25T15:16:26Z</time>
      </trkpt>
      <trkpt lat="42.52092" lon="2.28565">
        <ele>1083</ele>
        <time>2013-07-25T15:16:28Z</time>
      </trkpt>
      <trkpt lat="42.52094" lon="2.28562">
        <ele>1080</ele>
        <time>2013-07-25T15:16:31Z</time>
      </trkpt>
      <trkpt lat="42.52093" lon="2.28558">
        <ele>1078</ele>
        <time>2013-07-25T15:16:33Z</time>
      </trkpt>
      <trkpt lat="42.52093" lon="2.28553">
        <ele>1078</ele>
        <time>2013-07-25T15:16:35Z</time>
      </trkpt>
      <trkpt lat="42.52092" lon="2.28549">
        <ele>1078</ele>
        <time>2013-07-25T15:16:37Z</time>
      </trkpt>
      <trkpt lat="42.52091" lon="2.28545">
        <ele>1078</ele>
        <time>2013-07-25T15:16:39Z</time>
      </trkpt>
      <trkpt lat="42.52089" lon="2.28542">
        <ele>1078</ele>
        <time>2013-07-25T15:16:43Z</time>
      </trkpt>
      <trkpt lat="42.52089" lon="2.2854">
        <ele>1079</ele>
        <time>2013-07-25T15:16:45Z</time>
      </trkpt>
      <trkpt lat="42.52089" lon="2.28537">
        <ele>1080</ele>
        <time>2013-07-25T15:16:47Z</time>
      </trkpt>
      <trkpt lat="42.52088" lon="2.28531">
        <ele>1082</ele>
        <time>2013-07-25T15:16:49Z</time>
      </trkpt>
      <trkpt lat="42.52086" lon="2.28524">
        <ele>1084</ele>
        <time>2013-07-25T15:16:51Z</time>
      </trkpt>
      <trkpt lat="42.52085" lon="2.2852">
        <ele>1086</ele>
        <time>2013-07-25T15:16:53Z</time>
      </trkpt>
      <trkpt lat="42.52087" lon="2.28519">
        <ele>1088</ele>
        <time>2013-07-25T15:16:55Z</time>
      </trkpt>
      <trkpt lat="42.52088" lon="2.28518">
        <ele>1089</ele>
        <time>2013-07-25T15:16:57Z</time>
      </trkpt>
      <trkpt lat="42.52089" lon="2.28516">
        <ele>1089</ele>
        <time>2013-07-25T15:16:59Z</time>
      </trkpt>
      <trkpt lat="42.52092" lon="2.28517">
        <ele>1086</ele>
        <time>2013-07-25T15:17:02Z</time>
      </trkpt>
      <trkpt lat="42.52094" lon="2.28516">
        <ele>1082</ele>
        <time>2013-07-25T15:17:04Z</time>
      </trkpt>
      <trkpt lat="42.52096" lon="2.28516">
        <ele>1078</ele>
        <time>2013-07-25T15:17:06Z</time>
      </trkpt>
      <trkpt lat="42.52101" lon="2.28516">
        <ele>1068</ele>
        <time>2013-07-25T15:17:11Z</time>
      </trkpt>
      <trkpt lat="42.52103" lon="2.28514">
        <ele>1064</ele>
        <time>2013-07-25T15:17:13Z</time>
      </trkpt>
      <trkpt lat="42.52106" lon="2.2851">
        <ele>1059</ele>
        <time>2013-07-25T15:17:16Z</time>
      </trkpt>
      <trkpt lat="42.52108" lon="2.28509">
        <ele>1057</ele>
        <time>2013-07-25T15:17:18Z</time>
      </trkpt>
      <trkpt lat="42.5211" lon="2.28508">
        <ele>1054</ele>
        <time>2013-07-25T15:17:20Z</time>
      </trkpt>
      <trkpt lat="42.52112" lon="2.28506">
        <ele>1052</ele>
        <time>2013-07-25T15:17:22Z</time>
      </trkpt>
      <trkpt lat="42.52113" lon="2.28502">
        <ele>1050</ele>
        <time>2013-07-25T15:17:24Z</time>
      </trkpt>
      <trkpt lat="42.52115" lon="2.285">
        <ele>1047</ele>
        <time>2013-07-25T15:17:26Z</time>
      </trkpt>
      <trkpt lat="42.52117" lon="2.28497">
        <ele>1045</ele>
        <time>2013-07-25T15:17:28Z</time>
      </trkpt>
      <trkpt lat="42.52118" lon="2.28494">
        <ele>1042</ele>
        <time>2013-07-25T15:17:30Z</time>
      </trkpt>
      <trkpt lat="42.52121" lon="2.2849">
        <ele>1039</ele>
        <time>2013-07-25T15:17:33Z</time>
      </trkpt>
      <trkpt lat="42.52124" lon="2.28489">
        <ele>1035</ele>
        <time>2013-07-25T15:17:36Z</time>
      </trkpt>
      <trkpt lat="42.52125" lon="2.28487">
        <ele>1033</ele>
        <time>2013-07-25T15:17:38Z</time>
      </trkpt>
      <trkpt lat="42.52127" lon="2.28485">
        <ele>1031</ele>
        <time>2013-07-25T15:17:40Z</time>
      </trkpt>
      <trkpt lat="42.52128" lon="2.28484">
        <ele>1028</ele>
        <time>2013-07-25T15:17:42Z</time>
      </trkpt>
      <trkpt lat="42.5213" lon="2.28482">
        <ele>1026</ele>
        <time>2013-07-25T15:17:44Z</time>
      </trkpt>
      <trkpt lat="42.52132" lon="2.28481">
        <ele>1024</ele>
        <time>2013-07-25T15:17:46Z</time>
      </trkpt>
      <trkpt lat="42.52134" lon="2.28479">
        <ele>1022</ele>
        <time>2013-07-25T15:17:48Z</time>
      </trkpt>
      <trkpt lat="42.52136" lon="2.28477">
        <ele>1020</ele>
        <time>2013-07-25T15:17:50Z</time>
      </trkpt>
      <trkpt lat="42.52139" lon="2.28473">
        <ele>1016</ele>
        <time>2013-07-25T15:17:54Z</time>
      </trkpt>
      <trkpt lat="42.5214" lon="2.2847">
        <ele>1014</ele>
        <time>2013-07-25T15:17:56Z</time>
      </trkpt>
      <trkpt lat="42.52142" lon="2.28468">
        <ele>1012</ele>
        <time>2013-07-25T15:17:58Z</time>
      </trkpt>
      <trkpt lat="42.52145" lon="2.2847">
        <ele>1010</ele>
        <time>2013-07-25T15:18:00Z</time>
      </trkpt>
      <trkpt lat="42.52147" lon="2.28469">
        <ele>1008</ele>
        <time>2013-07-25T15:18:02Z</time>
      </trkpt>
      <trkpt lat="42.52149" lon="2.28467">
        <ele>1006</ele>
        <time>2013-07-25T15:18:04Z</time>
      </trkpt>
      <trkpt lat="42.52151" lon="2.28465">
        <ele>1004</ele>
        <time>2013-07-25T15:18:06Z</time>
      </trkpt>
      <trkpt lat="42.52154" lon="2.28464">
        <ele>1001</ele>
        <time>2013-07-25T15:18:09Z</time>
      </trkpt>
      <trkpt lat="42.52158" lon="2.28461">
        <ele>998</ele>
        <time>2013-07-25T15:18:12Z</time>
      </trkpt>
      <trkpt lat="42.52161" lon="2.28461">
        <ele>996</ele>
        <time>2013-07-25T15:18:14Z</time>
      </trkpt>
      <trkpt lat="42.52165" lon="2.28462">
        <ele>993</ele>
        <time>2013-07-25T15:18:17Z</time>
      </trkpt>
      <trkpt lat="42.52167" lon="2.28463">
        <ele>991</ele>
        <time>2013-07-25T15:18:19Z</time>
      </trkpt>
      <trkpt lat="42.52168" lon="2.28463">
        <ele>990</ele>
        <time>2013-07-25T15:18:22Z</time>
      </trkpt>
      <trkpt lat="42.52169" lon="2.28463">
        <ele>990</ele>
        <time>2013-07-25T15:18:24Z</time>
      </trkpt>
      <trkpt lat="42.52173" lon="2.28465">
        <ele>990</ele>
        <time>2013-07-25T15:18:28Z</time>
      </trkpt>
      <trkpt lat="42.52175" lon="2.28466">
        <ele>989</ele>
        <time>2013-07-25T15:18:30Z</time>
      </trkpt>
      <trkpt lat="42.52178" lon="2.28465">
        <ele>987</ele>
        <time>2013-07-25T15:18:33Z</time>
      </trkpt>
      <trkpt lat="42.5218" lon="2.28465">
        <ele>986</ele>
        <time>2013-07-25T15:18:35Z</time>
      </trkpt>
      <trkpt lat="42.52182" lon="2.28463">
        <ele>985</ele>
        <time>2013-07-25T15:18:37Z</time>
      </trkpt>
      <trkpt lat="42.52183" lon="2.28462">
        <ele>984</ele>
        <time>2013-07-25T15:18:39Z</time>
      </trkpt>
      <trkpt lat="42.52184" lon="2.28459">
        <ele>983</ele>
        <time>2013-07-25T15:18:41Z</time>
      </trkpt>
      <trkpt lat="42.52185" lon="2.28457">
        <ele>982</ele>
        <time>2013-07-25T15:18:43Z</time>
      </trkpt>
      <trkpt lat="42.52186" lon="2.28455">
        <ele>981</ele>
        <time>2013-07-25T15:18:45Z</time>
      </trkpt>
      <trkpt lat="42.52188" lon="2.28455">
        <ele>981</ele>
        <time>2013-07-25T15:18:47Z</time>
      </trkpt>
      <trkpt lat="42.5219" lon="2.28454">
        <ele>980</ele>
        <time>2013-07-25T15:18:49Z</time>
      </trkpt>
      <trkpt lat="42.52192" lon="2.28454">
        <ele>979</ele>
        <time>2013-07-25T15:18:51Z</time>
      </trkpt>
      <trkpt lat="42.52194" lon="2.28453">
        <ele>979</ele>
        <time>2013-07-25T15:18:53Z</time>
      </trkpt>
      <trkpt lat="42.52198" lon="2.28451">
        <ele>979</ele>
        <time>2013-07-25T15:18:56Z</time>
      </trkpt>
      <trkpt lat="42.522" lon="2.28449">
        <ele>979</ele>
        <time>2013-07-25T15:18:58Z</time>
      </trkpt>
      <trkpt lat="42.52203" lon="2.28448">
        <ele>978</ele>
        <time>2013-07-25T15:19:01Z</time>
      </trkpt>
      <trkpt lat="42.52205" lon="2.28447">
        <ele>977</ele>
        <time>2013-07-25T15:19:03Z</time>
      </trkpt>
      <trkpt lat="42.52208" lon="2.28447">
        <ele>976</ele>
        <time>2013-07-25T15:19:05Z</time>
      </trkpt>
      <trkpt lat="42.52212" lon="2.28445">
        <ele>972</ele>
        <time>2013-07-25T15:19:09Z</time>
      </trkpt>
      <trkpt lat="42.52216" lon="2.28444">
        <ele>971</ele>
        <time>2013-07-25T15:19:12Z</time>
      </trkpt>
      <trkpt lat="42.52218" lon="2.28442">
        <ele>970</ele>
        <time>2013-07-25T15:19:14Z</time>
      </trkpt>
      <trkpt lat="42.52219" lon="2.28438">
        <ele>969</ele>
        <time>2013-07-25T15:19:17Z</time>
      </trkpt>
      <trkpt lat="42.5222" lon="2.28434">
        <ele>968</ele>
        <time>2013-07-25T15:19:19Z</time>
      </trkpt>
      <trkpt lat="42.52221" lon="2.28431">
        <ele>967</ele>
        <time>2013-07-25T15:19:21Z</time>
      </trkpt>
      <trkpt lat="42.52222" lon="2.28426">
        <ele>967</ele>
        <time>2013-07-25T15:19:23Z</time>
      </trkpt>
      <trkpt lat="42.52224" lon="2.28423">
        <ele>966</ele>
        <time>2013-07-25T15:19:25Z</time>
      </trkpt>
      <trkpt lat="42.52225" lon="2.2842">
        <ele>966</ele>
        <time>2013-07-25T15:19:27Z</time>
      </trkpt>
      <trkpt lat="42.52227" lon="2.28418">
        <ele>966</ele>
        <time>2013-07-25T15:19:29Z</time>
      </trkpt>
      <trkpt lat="42.52229" lon="2.28417">
        <ele>966</ele>
        <time>2013-07-25T15:19:31Z</time>
      </trkpt>
      <trkpt lat="42.52232" lon="2.28414">
        <ele>966</ele>
        <time>2013-07-25T15:19:38Z</time>
      </trkpt>
      <trkpt lat="42.52233" lon="2.28412">
        <ele>965</ele>
        <time>2013-07-25T15:19:40Z</time>
      </trkpt>
      <trkpt lat="42.52234" lon="2.28413">
        <ele>964</ele>
        <time>2013-07-25T15:19:45Z</time>
      </trkpt>
      <trkpt lat="42.52236" lon="2.28414">
        <ele>962</ele>
        <time>2013-07-25T15:19:54Z</time>
      </trkpt>
      <trkpt lat="42.52235" lon="2.28415">
        <ele>962</ele>
        <time>2013-07-25T15:20:34Z</time>
      </trkpt>
      <trkpt lat="42.52236" lon="2.28416">
        <ele>960</ele>
        <time>2013-07-25T15:20:52Z</time>
      </trkpt>
      <trkpt lat="42.52237" lon="2.28416">
        <ele>960</ele>
        <time>2013-07-25T15:21:03Z</time>
      </trkpt>
      <trkpt lat="42.52239" lon="2.28417">
        <ele>959</ele>
        <time>2013-07-25T15:21:18Z</time>
      </trkpt>
      <trkpt lat="42.52238" lon="2.28418">
        <ele>958</ele>
        <time>2013-07-25T15:21:33Z</time>
      </trkpt>
      <trkpt lat="42.52237" lon="2.28419">
        <ele>956</ele>
        <time>2013-07-25T15:21:39Z</time>
      </trkpt>
      <trkpt lat="42.52236" lon="2.28419">
        <ele>955</ele>
        <time>2013-07-25T15:21:44Z</time>
      </trkpt>
      <trkpt lat="42.52235" lon="2.2842">
        <ele>953</ele>
        <time>2013-07-25T15:21:53Z</time>
      </trkpt>
      <trkpt lat="42.52237" lon="2.2842">
        <ele>952</ele>
        <time>2013-07-25T15:22:29Z</time>
      </trkpt>
      <trkpt lat="42.52239" lon="2.2842">
        <ele>952</ele>
        <time>2013-07-25T15:22:31Z</time>
      </trkpt>
      <trkpt lat="42.52243" lon="2.28418">
        <ele>952</ele>
        <time>2013-07-25T15:22:34Z</time>
      </trkpt>
      <trkpt lat="42.52247" lon="2.28416">
        <ele>952</ele>
        <time>2013-07-25T15:22:38Z</time>
      </trkpt>
      <trkpt lat="42.52249" lon="2.28416">
        <ele>952</ele>
        <time>2013-07-25T15:22:40Z</time>
      </trkpt>
      <trkpt lat="42.52251" lon="2.28418">
        <ele>952</ele>
        <time>2013-07-25T15:22:42Z</time>
      </trkpt>
      <trkpt lat="42.52252" lon="2.28418">
        <ele>952</ele>
        <time>2013-07-25T15:22:45Z</time>
      </trkpt>
      <trkpt lat="42.52254" lon="2.28418">
        <ele>952</ele>
        <time>2013-07-25T15:22:48Z</time>
      </trkpt>
      <trkpt lat="42.52254" lon="2.28416">
        <ele>952</ele>
        <time>2013-07-25T15:22:53Z</time>
      </trkpt>
      <trkpt lat="42.52255" lon="2.28412">
        <ele>952</ele>
        <time>2013-07-25T15:22:57Z</time>
      </trkpt>
      <trkpt lat="42.52256" lon="2.28411">
        <ele>953</ele>
        <time>2013-07-25T15:22:59Z</time>
      </trkpt>
      <trkpt lat="42.52256" lon="2.28407">
        <ele>954</ele>
        <time>2013-07-25T15:23:01Z</time>
      </trkpt>
      <trkpt lat="42.52256" lon="2.28403">
        <ele>955</ele>
        <time>2013-07-25T15:23:03Z</time>
      </trkpt>
      <trkpt lat="42.52255" lon="2.28396">
        <ele>956</ele>
        <time>2013-07-25T15:23:06Z</time>
      </trkpt>
      <trkpt lat="42.52256" lon="2.28393">
        <ele>957</ele>
        <time>2013-07-25T15:23:08Z</time>
      </trkpt>
      <trkpt lat="42.52257" lon="2.28389">
        <ele>958</ele>
        <time>2013-07-25T15:23:10Z</time>
      </trkpt>
      <trkpt lat="42.52258" lon="2.28386">
        <ele>958</ele>
        <time>2013-07-25T15:23:12Z</time>
      </trkpt>
      <trkpt lat="42.52261" lon="2.28382">
        <ele>959</ele>
        <time>2013-07-25T15:23:15Z</time>
      </trkpt>
      <trkpt lat="42.52264" lon="2.28377">
        <ele>959</ele>
        <time>2013-07-25T15:23:19Z</time>
      </trkpt>
      <trkpt lat="42.52267" lon="2.28373">
        <ele>959</ele>
        <time>2013-07-25T15:23:22Z</time>
      </trkpt>
      <trkpt lat="42.5227" lon="2.2837">
        <ele>959</ele>
        <time>2013-07-25T15:23:24Z</time>
      </trkpt>
      <trkpt lat="42.52271" lon="2.28367">
        <ele>959</ele>
        <time>2013-07-25T15:23:26Z</time>
      </trkpt>
      <trkpt lat="42.52274" lon="2.28363">
        <ele>959</ele>
        <time>2013-07-25T15:23:29Z</time>
      </trkpt>
      <trkpt lat="42.52278" lon="2.28358">
        <ele>960</ele>
        <time>2013-07-25T15:23:33Z</time>
      </trkpt>
      <trkpt lat="42.5228" lon="2.28354">
        <ele>960</ele>
        <time>2013-07-25T15:23:36Z</time>
      </trkpt>
      <trkpt lat="42.52279" lon="2.2835">
        <ele>960</ele>
        <time>2013-07-25T15:23:38Z</time>
      </trkpt>
      <trkpt lat="42.52279" lon="2.28347">
        <ele>960</ele>
        <time>2013-07-25T15:23:40Z</time>
      </trkpt>
      <trkpt lat="42.5228" lon="2.28342">
        <ele>962</ele>
        <time>2013-07-25T15:23:45Z</time>
      </trkpt>
      <trkpt lat="42.52279" lon="2.28336">
        <ele>963</ele>
        <time>2013-07-25T15:23:48Z</time>
      </trkpt>
      <trkpt lat="42.52278" lon="2.28329">
        <ele>964</ele>
        <time>2013-07-25T15:23:51Z</time>
      </trkpt>
      <trkpt lat="42.52279" lon="2.28323">
        <ele>966</ele>
        <time>2013-07-25T15:23:54Z</time>
      </trkpt>
      <trkpt lat="42.52281" lon="2.28319">
        <ele>967</ele>
        <time>2013-07-25T15:23:57Z</time>
      </trkpt>
      <trkpt lat="42.52282" lon="2.28315">
        <ele>968</ele>
        <time>2013-07-25T15:23:59Z</time>
      </trkpt>
      <trkpt lat="42.52286" lon="2.28311">
        <ele>968</ele>
        <time>2013-07-25T15:24:03Z</time>
      </trkpt>
      <trkpt lat="42.52288" lon="2.28307">
        <ele>968</ele>
        <time>2013-07-25T15:24:06Z</time>
      </trkpt>
      <trkpt lat="42.5229" lon="2.28305">
        <ele>968</ele>
        <time>2013-07-25T15:24:08Z</time>
      </trkpt>
      <trkpt lat="42.52292" lon="2.28304">
        <ele>968</ele>
        <time>2013-07-25T15:24:10Z</time>
      </trkpt>
      <trkpt lat="42.52295" lon="2.28302">
        <ele>968</ele>
        <time>2013-07-25T15:24:13Z</time>
      </trkpt>
      <trkpt lat="42.52295" lon="2.28304">
        <ele>967</ele>
        <time>2013-07-25T15:24:29Z</time>
      </trkpt>
      <trkpt lat="42.52297" lon="2.28303">
        <ele>966</ele>
        <time>2013-07-25T15:24:34Z</time>
      </trkpt>
      <trkpt lat="42.52298" lon="2.28302">
        <ele>964</ele>
        <time>2013-07-25T15:24:36Z</time>
      </trkpt>
      <trkpt lat="42.52301" lon="2.28301">
        <ele>963</ele>
        <time>2013-07-25T15:24:40Z</time>
      </trkpt>
      <trkpt lat="42.52303" lon="2.283">
        <ele>963</ele>
        <time>2013-07-25T15:24:44Z</time>
      </trkpt>
      <trkpt lat="42.52304" lon="2.28298">
        <ele>962</ele>
        <time>2013-07-25T15:24:46Z</time>
      </trkpt>
      <trkpt lat="42.52308" lon="2.28296">
        <ele>962</ele>
        <time>2013-07-25T15:24:49Z</time>
      </trkpt>
      <trkpt lat="42.5231" lon="2.28296">
        <ele>962</ele>
        <time>2013-07-25T15:24:51Z</time>
      </trkpt>
      <trkpt lat="42.52313" lon="2.28295">
        <ele>962</ele>
        <time>2013-07-25T15:24:53Z</time>
      </trkpt>
      <trkpt lat="42.52317" lon="2.28296">
        <ele>962</ele>
        <time>2013-07-25T15:24:56Z</time>
      </trkpt>
      <trkpt lat="42.5232" lon="2.28296">
        <ele>962</ele>
        <time>2013-07-25T15:24:58Z</time>
      </trkpt>
      <trkpt lat="42.52322" lon="2.28295">
        <ele>962</ele>
        <time>2013-07-25T15:25:00Z</time>
      </trkpt>
      <trkpt lat="42.52324" lon="2.28295">
        <ele>962</ele>
        <time>2013-07-25T15:25:02Z</time>
      </trkpt>
      <trkpt lat="42.52326" lon="2.28294">
        <ele>962</ele>
        <time>2013-07-25T15:25:04Z</time>
      </trkpt>
      <trkpt lat="42.52329" lon="2.28292">
        <ele>962</ele>
        <time>2013-07-25T15:25:07Z</time>
      </trkpt>
      <trkpt lat="42.52333" lon="2.28293">
        <ele>962</ele>
        <time>2013-07-25T15:25:10Z</time>
      </trkpt>
      <trkpt lat="42.52335" lon="2.28292">
        <ele>962</ele>
        <time>2013-07-25T15:25:12Z</time>
      </trkpt>
      <trkpt lat="42.52338" lon="2.28291">
        <ele>962</ele>
        <time>2013-07-25T15:25:14Z</time>
      </trkpt>
      <trkpt lat="42.52341" lon="2.28288">
        <ele>962</ele>
        <time>2013-07-25T15:25:18Z</time>
      </trkpt>
      <trkpt lat="42.52344" lon="2.28284">
        <ele>961</ele>
        <time>2013-07-25T15:25:22Z</time>
      </trkpt>
      <trkpt lat="42.52345" lon="2.28281">
        <ele>960</ele>
        <time>2013-07-25T15:25:24Z</time>
      </trkpt>
      <trkpt lat="42.52346" lon="2.28279">
        <ele>959</ele>
        <time>2013-07-25T15:25:26Z</time>
      </trkpt>
      <trkpt lat="42.52346" lon="2.28273">
        <ele>958</ele>
        <time>2013-07-25T15:25:29Z</time>
      </trkpt>
      <trkpt lat="42.52346" lon="2.28267">
        <ele>957</ele>
        <time>2013-07-25T15:25:32Z</time>
      </trkpt>
      <trkpt lat="42.52347" lon="2.28263">
        <ele>956</ele>
        <time>2013-07-25T15:25:34Z</time>
      </trkpt>
      <trkpt lat="42.52347" lon="2.28259">
        <ele>956</ele>
        <time>2013-07-25T15:25:37Z</time>
      </trkpt>
      <trkpt lat="42.52347" lon="2.28254">
        <ele>955</ele>
        <time>2013-07-25T15:25:40Z</time>
      </trkpt>
      <trkpt lat="42.52346" lon="2.28249">
        <ele>954</ele>
        <time>2013-07-25T15:25:43Z</time>
      </trkpt>
      <trkpt lat="42.52346" lon="2.28245">
        <ele>954</ele>
        <time>2013-07-25T15:25:45Z</time>
      </trkpt>
      <trkpt lat="42.52346" lon="2.28242">
        <ele>953</ele>
        <time>2013-07-25T15:25:47Z</time>
      </trkpt>
      <trkpt lat="42.52347" lon="2.2824">
        <ele>953</ele>
        <time>2013-07-25T15:25:49Z</time>
      </trkpt>
      <trkpt lat="42.52348" lon="2.28238">
        <ele>953</ele>
        <time>2013-07-25T15:25:52Z</time>
      </trkpt>
      <trkpt lat="42.52349" lon="2.28233">
        <ele>952</ele>
        <time>2013-07-25T15:25:55Z</time>
      </trkpt>
      <trkpt lat="42.5235" lon="2.28228">
        <ele>950</ele>
        <time>2013-07-25T15:25:58Z</time>
      </trkpt>
      <trkpt lat="42.5235" lon="2.28223">
        <ele>948</ele>
        <time>2013-07-25T15:26:01Z</time>
      </trkpt>
      <trkpt lat="42.52349" lon="2.28217">
        <ele>946</ele>
        <time>2013-07-25T15:26:06Z</time>
      </trkpt>
      <trkpt lat="42.52349" lon="2.28213">
        <ele>945</ele>
        <time>2013-07-25T15:26:09Z</time>
      </trkpt>
      <trkpt lat="42.5235" lon="2.28212">
        <ele>943</ele>
        <time>2013-07-25T15:26:33Z</time>
      </trkpt>
      <trkpt lat="42.5235" lon="2.28214">
        <ele>942</ele>
        <time>2013-07-25T15:26:38Z</time>
      </trkpt>
      <trkpt lat="42.52352" lon="2.28218">
        <ele>942</ele>
        <time>2013-07-25T15:26:40Z</time>
      </trkpt>
      <trkpt lat="42.52353" lon="2.2822">
        <ele>942</ele>
        <time>2013-07-25T15:26:43Z</time>
      </trkpt>
      <trkpt lat="42.52359" lon="2.28223">
        <ele>942</ele>
        <time>2013-07-25T15:26:48Z</time>
      </trkpt>
      <trkpt lat="42.52364" lon="2.28225">
        <ele>942</ele>
        <time>2013-07-25T15:26:53Z</time>
      </trkpt>
      <trkpt lat="42.5237" lon="2.28226">
        <ele>942</ele>
        <time>2013-07-25T15:26:58Z</time>
      </trkpt>
      <trkpt lat="42.52375" lon="2.28226">
        <ele>942</ele>
        <time>2013-07-25T15:27:02Z</time>
      </trkpt>
      <trkpt lat="42.5238" lon="2.28226">
        <ele>942</ele>
        <time>2013-07-25T15:27:05Z</time>
      </trkpt>
      <trkpt lat="42.52383" lon="2.28226">
        <ele>942</ele>
        <time>2013-07-25T15:27:09Z</time>
      </trkpt>
      <trkpt lat="42.52388" lon="2.28228">
        <ele>942</ele>
        <time>2013-07-25T15:27:13Z</time>
      </trkpt>
      <trkpt lat="42.52391" lon="2.28229">
        <ele>942</ele>
        <time>2013-07-25T15:27:15Z</time>
      </trkpt>
      <trkpt lat="42.52394" lon="2.28229">
        <ele>942</ele>
        <time>2013-07-25T15:27:18Z</time>
      </trkpt>
      <trkpt lat="42.52399" lon="2.28229">
        <ele>942</ele>
        <time>2013-07-25T15:27:23Z</time>
      </trkpt>
      <trkpt lat="42.52406" lon="2.28229">
        <ele>942</ele>
        <time>2013-07-25T15:27:27Z</time>
      </trkpt>
      <trkpt lat="42.5241" lon="2.28228">
        <ele>942</ele>
        <time>2013-07-25T15:27:32Z</time>
      </trkpt>
      <trkpt lat="42.52415" lon="2.28228">
        <ele>942</ele>
        <time>2013-07-25T15:27:35Z</time>
      </trkpt>
      <trkpt lat="42.52419" lon="2.28227">
        <ele>942</ele>
        <time>2013-07-25T15:27:38Z</time>
      </trkpt>
      <trkpt lat="42.52426" lon="2.28227">
        <ele>941</ele>
        <time>2013-07-25T15:27:42Z</time>
      </trkpt>
      <trkpt lat="42.52431" lon="2.28225">
        <ele>941</ele>
        <time>2013-07-25T15:27:47Z</time>
      </trkpt>
      <trkpt lat="42.52436" lon="2.28225">
        <ele>941</ele>
        <time>2013-07-25T15:27:52Z</time>
      </trkpt>
      <trkpt lat="42.52442" lon="2.28226">
        <ele>940</ele>
        <time>2013-07-25T15:27:56Z</time>
      </trkpt>
      <trkpt lat="42.52445" lon="2.28228">
        <ele>939</ele>
        <time>2013-07-25T15:27:59Z</time>
      </trkpt>
      <trkpt lat="42.52448" lon="2.28228">
        <ele>938</ele>
        <time>2013-07-25T15:28:01Z</time>
      </trkpt>
      <trkpt lat="42.52455" lon="2.28231">
        <ele>938</ele>
        <time>2013-07-25T15:28:06Z</time>
      </trkpt>
      <trkpt lat="42.5246" lon="2.28231">
        <ele>938</ele>
        <time>2013-07-25T15:28:11Z</time>
      </trkpt>
      <trkpt lat="42.52466" lon="2.28232">
        <ele>938</ele>
        <time>2013-07-25T15:28:15Z</time>
      </trkpt>
      <trkpt lat="42.52473" lon="2.28233">
        <ele>938</ele>
        <time>2013-07-25T15:28:20Z</time>
      </trkpt>
      <trkpt lat="42.52477" lon="2.28232">
        <ele>938</ele>
        <time>2013-07-25T15:28:22Z</time>
      </trkpt>
      <trkpt lat="42.52481" lon="2.28232">
        <ele>938</ele>
        <time>2013-07-25T15:28:27Z</time>
      </trkpt>
      <trkpt lat="42.52485" lon="2.2823">
        <ele>938</ele>
        <time>2013-07-25T15:28:31Z</time>
      </trkpt>
      <trkpt lat="42.52492" lon="2.28227">
        <ele>938</ele>
        <time>2013-07-25T15:28:35Z</time>
      </trkpt>
      <trkpt lat="42.52498" lon="2.28222">
        <ele>938</ele>
        <time>2013-07-25T15:28:42Z</time>
      </trkpt>
      <trkpt lat="42.52503" lon="2.28215">
        <ele>936</ele>
        <time>2013-07-25T15:28:46Z</time>
      </trkpt>
      <trkpt lat="42.52505" lon="2.28213">
        <ele>935</ele>
        <time>2013-07-25T15:28:49Z</time>
      </trkpt>
      <trkpt lat="42.52507" lon="2.28211">
        <ele>934</ele>
        <time>2013-07-25T15:28:51Z</time>
      </trkpt>
      <trkpt lat="42.52511" lon="2.2821">
        <ele>933</ele>
        <time>2013-07-25T15:28:53Z</time>
      </trkpt>
      <trkpt lat="42.52514" lon="2.28209">
        <ele>933</ele>
        <time>2013-07-25T15:28:56Z</time>
      </trkpt>
      <trkpt lat="42.5252" lon="2.28209">
        <ele>933</ele>
        <time>2013-07-25T15:29:01Z</time>
      </trkpt>
      <trkpt lat="42.52523" lon="2.2821">
        <ele>933</ele>
        <time>2013-07-25T15:29:03Z</time>
      </trkpt>
      <trkpt lat="42.52526" lon="2.2821">
        <ele>933</ele>
        <time>2013-07-25T15:29:07Z</time>
      </trkpt>
      <trkpt lat="42.5253" lon="2.28212">
        <ele>933</ele>
        <time>2013-07-25T15:29:09Z</time>
      </trkpt>
      <trkpt lat="42.52534" lon="2.28213">
        <ele>933</ele>
        <time>2013-07-25T15:29:12Z</time>
      </trkpt>
      <trkpt lat="42.52536" lon="2.28213">
        <ele>933</ele>
        <time>2013-07-25T15:29:15Z</time>
      </trkpt>
      <trkpt lat="42.5254" lon="2.28213">
        <ele>933</ele>
        <time>2013-07-25T15:29:17Z</time>
      </trkpt>
      <trkpt lat="42.52542" lon="2.28213">
        <ele>933</ele>
        <time>2013-07-25T15:29:20Z</time>
      </trkpt>
      <trkpt lat="42.52547" lon="2.28211">
        <ele>933</ele>
        <time>2013-07-25T15:29:23Z</time>
      </trkpt>
      <trkpt lat="42.52551" lon="2.28209">
        <ele>933</ele>
        <time>2013-07-25T15:29:28Z</time>
      </trkpt>
      <trkpt lat="42.52556" lon="2.28205">
        <ele>933</ele>
        <time>2013-07-25T15:29:33Z</time>
      </trkpt>
      <trkpt lat="42.52559" lon="2.28201">
        <ele>933</ele>
        <time>2013-07-25T15:29:35Z</time>
      </trkpt>
      <trkpt lat="42.52562" lon="2.28197">
        <ele>933</ele>
        <time>2013-07-25T15:29:40Z</time>
      </trkpt>
      <trkpt lat="42.52564" lon="2.28192">
        <ele>931</ele>
        <time>2013-07-25T15:29:43Z</time>
      </trkpt>
      <trkpt lat="42.52564" lon="2.28189">
        <ele>931</ele>
        <time>2013-07-25T15:29:45Z</time>
      </trkpt>
      <trkpt lat="42.52567" lon="2.28183">
        <ele>929</ele>
        <time>2013-07-25T15:29:48Z</time>
      </trkpt>
      <trkpt lat="42.52569" lon="2.28181">
        <ele>929</ele>
        <time>2013-07-25T15:29:52Z</time>
      </trkpt>
      <trkpt lat="42.52574" lon="2.28177">
        <ele>927</ele>
        <time>2013-07-25T15:29:57Z</time>
      </trkpt>
      <trkpt lat="42.52579" lon="2.28173">
        <ele>924</ele>
        <time>2013-07-25T15:30:02Z</time>
      </trkpt>
      <trkpt lat="42.52584" lon="2.2817">
        <ele>921</ele>
        <time>2013-07-25T15:30:07Z</time>
      </trkpt>
      <trkpt lat="42.52589" lon="2.28165">
        <ele>920</ele>
        <time>2013-07-25T15:30:11Z</time>
      </trkpt>
      <trkpt lat="42.52595" lon="2.28161">
        <ele>919</ele>
        <time>2013-07-25T15:30:16Z</time>
      </trkpt>
      <trkpt lat="42.52599" lon="2.28157">
        <ele>918</ele>
        <time>2013-07-25T15:30:21Z</time>
      </trkpt>
      <trkpt lat="42.52604" lon="2.28153">
        <ele>918</ele>
        <time>2013-07-25T15:30:25Z</time>
      </trkpt>
      <trkpt lat="42.52611" lon="2.28155">
        <ele>917</ele>
        <time>2013-07-25T15:30:30Z</time>
      </trkpt>
      <trkpt lat="42.52625" lon="2.28169">
        <ele>912</ele>
        <time>2013-07-25T15:30:35Z</time>
      </trkpt>
      <trkpt lat="42.52628" lon="2.28172">
        <ele>897</ele>
        <time>2013-07-25T15:30:42Z</time>
      </trkpt>
      <trkpt lat="42.52628" lon="2.28176">
        <ele>893</ele>
        <time>2013-07-25T15:30:47Z</time>
      </trkpt>
      <trkpt lat="42.5263" lon="2.28185">
        <ele>888</ele>
        <time>2013-07-25T15:30:51Z</time>
      </trkpt>
      <trkpt lat="42.52628" lon="2.28195">
        <ele>880</ele>
        <time>2013-07-25T15:30:59Z</time>
      </trkpt>
      <trkpt lat="42.5263" lon="2.282">
        <ele>877</ele>
        <time>2013-07-25T15:31:02Z</time>
      </trkpt>
      <trkpt lat="42.52631" lon="2.28203">
        <ele>877</ele>
        <time>2013-07-25T15:31:04Z</time>
      </trkpt>
      <trkpt lat="42.52633" lon="2.28208">
        <ele>877</ele>
        <time>2013-07-25T15:31:07Z</time>
      </trkpt>
      <trkpt lat="42.52634" lon="2.28211">
        <ele>877</ele>
        <time>2013-07-25T15:31:09Z</time>
      </trkpt>
      <trkpt lat="42.52636" lon="2.28216">
        <ele>876</ele>
        <time>2013-07-25T15:31:12Z</time>
      </trkpt>
      <trkpt lat="42.52638" lon="2.28219">
        <ele>876</ele>
        <time>2013-07-25T15:31:14Z</time>
      </trkpt>
      <trkpt lat="42.5264" lon="2.28223">
        <ele>876</ele>
        <time>2013-07-25T15:31:17Z</time>
      </trkpt>
      <trkpt lat="42.52643" lon="2.28226">
        <ele>876</ele>
        <time>2013-07-25T15:31:19Z</time>
      </trkpt>
      <trkpt lat="42.52646" lon="2.2823">
        <ele>876</ele>
        <time>2013-07-25T15:31:22Z</time>
      </trkpt>
      <trkpt lat="42.52649" lon="2.28233">
        <ele>876</ele>
        <time>2013-07-25T15:31:24Z</time>
      </trkpt>
      <trkpt lat="42.52653" lon="2.28237">
        <ele>876</ele>
        <time>2013-07-25T15:31:27Z</time>
      </trkpt>
      <trkpt lat="42.52656" lon="2.28238">
        <ele>876</ele>
        <time>2013-07-25T15:31:29Z</time>
      </trkpt>
      <trkpt lat="42.52662" lon="2.28241">
        <ele>876</ele>
        <time>2013-07-25T15:31:32Z</time>
      </trkpt>
      <trkpt lat="42.52664" lon="2.28242">
        <ele>876</ele>
        <time>2013-07-25T15:31:34Z</time>
      </trkpt>
      <trkpt lat="42.52667" lon="2.28246">
        <ele>876</ele>
        <time>2013-07-25T15:31:38Z</time>
      </trkpt>
      <trkpt lat="42.52669" lon="2.28248">
        <ele>876</ele>
        <time>2013-07-25T15:31:40Z</time>
      </trkpt>
      <trkpt lat="42.52671" lon="2.2825">
        <ele>876</ele>
        <time>2013-07-25T15:31:42Z</time>
      </trkpt>
      <trkpt lat="42.52673" lon="2.28251">
        <ele>876</ele>
        <time>2013-07-25T15:31:44Z</time>
      </trkpt>
      <trkpt lat="42.52674" lon="2.28248">
        <ele>874</ele>
        <time>2013-07-25T15:31:49Z</time>
      </trkpt>
      <trkpt lat="42.52673" lon="2.28243">
        <ele>873</ele>
        <time>2013-07-25T15:31:52Z</time>
      </trkpt>
      <trkpt lat="42.52672" lon="2.2824">
        <ele>873</ele>
        <time>2013-07-25T15:31:55Z</time>
      </trkpt>
      <trkpt lat="42.52669" lon="2.28239">
        <ele>872</ele>
        <time>2013-07-25T15:31:57Z</time>
      </trkpt>
      <trkpt lat="42.52666" lon="2.28237">
        <ele>871</ele>
        <time>2013-07-25T15:32:00Z</time>
      </trkpt>
      <trkpt lat="42.52665" lon="2.28233">
        <ele>871</ele>
        <time>2013-07-25T15:32:02Z</time>
      </trkpt>
      <trkpt lat="42.52664" lon="2.28232">
        <ele>871</ele>
        <time>2013-07-25T15:32:04Z</time>
      </trkpt>
      <trkpt lat="42.52661" lon="2.28228">
        <ele>871</ele>
        <time>2013-07-25T15:32:08Z</time>
      </trkpt>
      <trkpt lat="42.52659" lon="2.28224">
        <ele>871</ele>
        <time>2013-07-25T15:32:11Z</time>
      </trkpt>
      <trkpt lat="42.52658" lon="2.28221">
        <ele>871</ele>
        <time>2013-07-25T15:32:13Z</time>
      </trkpt>
      <trkpt lat="42.52658" lon="2.28219">
        <ele>871</ele>
        <time>2013-07-25T15:32:15Z</time>
      </trkpt>
      <trkpt lat="42.52655" lon="2.28217">
        <ele>871</ele>
        <time>2013-07-25T15:32:17Z</time>
      </trkpt>
      <trkpt lat="42.52654" lon="2.28214">
        <ele>871</ele>
        <time>2013-07-25T15:32:19Z</time>
      </trkpt>
      <trkpt lat="42.52655" lon="2.2821">
        <ele>871</ele>
        <time>2013-07-25T15:32:22Z</time>
      </trkpt>
      <trkpt lat="42.52654" lon="2.28207">
        <ele>871</ele>
        <time>2013-07-25T15:32:24Z</time>
      </trkpt>
      <trkpt lat="42.52653" lon="2.28206">
        <ele>870</ele>
        <time>2013-07-25T15:32:28Z</time>
      </trkpt>
      <trkpt lat="42.52653" lon="2.28203">
        <ele>870</ele>
        <time>2013-07-25T15:32:31Z</time>
      </trkpt>
      <trkpt lat="42.52653" lon="2.28201">
        <ele>869</ele>
        <time>2013-07-25T15:32:33Z</time>
      </trkpt>
      <trkpt lat="42.52652" lon="2.28198">
        <ele>868</ele>
        <time>2013-07-25T15:32:35Z</time>
      </trkpt>
      <trkpt lat="42.52652" lon="2.28195">
        <ele>867</ele>
        <time>2013-07-25T15:32:37Z</time>
      </trkpt>
      <trkpt lat="42.52651" lon="2.28192">
        <ele>867</ele>
        <time>2013-07-25T15:32:39Z</time>
      </trkpt>
      <trkpt lat="42.52646" lon="2.28187">
        <ele>866</ele>
        <time>2013-07-25T15:32:42Z</time>
      </trkpt>
      <trkpt lat="42.52647" lon="2.28184">
        <ele>865</ele>
        <time>2013-07-25T15:32:44Z</time>
      </trkpt>
      <trkpt lat="42.52648" lon="2.28179">
        <ele>864</ele>
        <time>2013-07-25T15:32:47Z</time>
      </trkpt>
      <trkpt lat="42.52648" lon="2.28175">
        <ele>864</ele>
        <time>2013-07-25T15:32:50Z</time>
      </trkpt>
      <trkpt lat="42.52649" lon="2.28173">
        <ele>863</ele>
        <time>2013-07-25T15:32:52Z</time>
      </trkpt>
      <trkpt lat="42.5265" lon="2.2817">
        <ele>862</ele>
        <time>2013-07-25T15:32:54Z</time>
      </trkpt>
      <trkpt lat="42.52651" lon="2.28167">
        <ele>862</ele>
        <time>2013-07-25T15:32:57Z</time>
      </trkpt>
      <trkpt lat="42.52651" lon="2.28165">
        <ele>862</ele>
        <time>2013-07-25T15:32:59Z</time>
      </trkpt>
      <trkpt lat="42.52651" lon="2.28161">
        <ele>861</ele>
        <time>2013-07-25T15:33:02Z</time>
      </trkpt>
      <trkpt lat="42.52651" lon="2.28158">
        <ele>860</ele>
        <time>2013-07-25T15:33:04Z</time>
      </trkpt>
      <trkpt lat="42.5265" lon="2.28154">
        <ele>860</ele>
        <time>2013-07-25T15:33:07Z</time>
      </trkpt>
      <trkpt lat="42.5265" lon="2.28149">
        <ele>860</ele>
        <time>2013-07-25T15:33:10Z</time>
      </trkpt>
      <trkpt lat="42.5265" lon="2.28146">
        <ele>860</ele>
        <time>2013-07-25T15:33:12Z</time>
      </trkpt>
      <trkpt lat="42.52651" lon="2.28143">
        <ele>860</ele>
        <time>2013-07-25T15:33:14Z</time>
      </trkpt>
      <trkpt lat="42.52654" lon="2.2814">
        <ele>860</ele>
        <time>2013-07-25T15:33:17Z</time>
      </trkpt>
      <trkpt lat="42.52653" lon="2.2814">
        <ele>860</ele>
        <time>2013-07-25T15:33:20Z</time>
      </trkpt>
      <trkpt lat="42.52653" lon="2.28139">
        <ele>860</ele>
        <time>2013-07-25T15:33:25Z</time>
      </trkpt>
      <trkpt lat="42.52653" lon="2.28137">
        <ele>860</ele>
        <time>2013-07-25T15:33:27Z</time>
      </trkpt>
      <trkpt lat="42.52655" lon="2.28134">
        <ele>860</ele>
        <time>2013-07-25T15:33:29Z</time>
      </trkpt>
      <trkpt lat="42.52657" lon="2.28129">
        <ele>860</ele>
        <time>2013-07-25T15:33:33Z</time>
      </trkpt>
      <trkpt lat="42.52655" lon="2.28125">
        <ele>860</ele>
        <time>2013-07-25T15:33:35Z</time>
      </trkpt>
      <trkpt lat="42.52655" lon="2.28122">
        <ele>859</ele>
        <time>2013-07-25T15:33:38Z</time>
      </trkpt>
      <trkpt lat="42.52655" lon="2.2812">
        <ele>858</ele>
        <time>2013-07-25T15:33:40Z</time>
      </trkpt>
      <trkpt lat="42.52656" lon="2.28118">
        <ele>857</ele>
        <time>2013-07-25T15:33:43Z</time>
      </trkpt>
      <trkpt lat="42.52657" lon="2.28117">
        <ele>856</ele>
        <time>2013-07-25T15:33:45Z</time>
      </trkpt>
      <trkpt lat="42.52657" lon="2.28114">
        <ele>856</ele>
        <time>2013-07-25T15:33:47Z</time>
      </trkpt>
      <trkpt lat="42.52656" lon="2.28111">
        <ele>855</ele>
        <time>2013-07-25T15:33:51Z</time>
      </trkpt>
      <trkpt lat="42.52656" lon="2.28105">
        <ele>855</ele>
        <time>2013-07-25T15:33:56Z</time>
      </trkpt>
      <trkpt lat="42.52657" lon="2.28101">
        <ele>855</ele>
        <time>2013-07-25T15:34:03Z</time>
      </trkpt>
      <trkpt lat="42.52658" lon="2.28094">
        <ele>853</ele>
        <time>2013-07-25T15:34:06Z</time>
      </trkpt>
      <trkpt lat="42.5266" lon="2.2809">
        <ele>853</ele>
        <time>2013-07-25T15:34:09Z</time>
      </trkpt>
      <trkpt lat="42.52661" lon="2.28085">
        <ele>852</ele>
        <time>2013-07-25T15:34:13Z</time>
      </trkpt>
      <trkpt lat="42.52662" lon="2.28083">
        <ele>851</ele>
        <time>2013-07-25T15:34:17Z</time>
      </trkpt>
      <trkpt lat="42.52663" lon="2.28077">
        <ele>849</ele>
        <time>2013-07-25T15:34:20Z</time>
      </trkpt>
      <trkpt lat="42.52665" lon="2.28075">
        <ele>849</ele>
        <time>2013-07-25T15:34:23Z</time>
      </trkpt>
      <trkpt lat="42.52669" lon="2.28071">
        <ele>849</ele>
        <time>2013-07-25T15:34:30Z</time>
      </trkpt>
      <trkpt lat="42.52669" lon="2.28068">
        <ele>849</ele>
        <time>2013-07-25T15:34:37Z</time>
      </trkpt>
      <trkpt lat="42.52674" lon="2.2807">
        <ele>850</ele>
        <time>2013-07-25T15:34:48Z</time>
      </trkpt>
      <trkpt lat="42.52675" lon="2.28071">
        <ele>851</ele>
        <time>2013-07-25T15:34:52Z</time>
      </trkpt>
      <trkpt lat="42.52677" lon="2.28072">
        <ele>854</ele>
        <time>2013-07-25T15:34:58Z</time>
      </trkpt>
      <trkpt lat="42.52677" lon="2.2807">
        <ele>855</ele>
        <time>2013-07-25T15:35:04Z</time>
      </trkpt>
      <trkpt lat="42.52675" lon="2.28069">
        <ele>855</ele>
        <time>2013-07-25T15:35:11Z</time>
      </trkpt>
      <trkpt lat="42.52674" lon="2.28067">
        <ele>855</ele>
        <time>2013-07-25T15:35:18Z</time>
      </trkpt>
      <trkpt lat="42.52673" lon="2.28066">
        <ele>854</ele>
        <time>2013-07-25T15:35:21Z</time>
      </trkpt>
      <trkpt lat="42.52668" lon="2.28063">
        <ele>853</ele>
        <time>2013-07-25T15:35:25Z</time>
      </trkpt>
      <trkpt lat="42.52665" lon="2.28063">
        <ele>851</ele>
        <time>2013-07-25T15:35:27Z</time>
      </trkpt>
      <trkpt lat="42.52665" lon="2.28069">
        <ele>850</ele>
        <time>2013-07-25T15:36:24Z</time>
      </trkpt>
      <trkpt lat="42.52672" lon="2.28072">
        <ele>850</ele>
        <time>2013-07-25T15:36:27Z</time>
      </trkpt>
      <trkpt lat="42.52676" lon="2.28078">
        <ele>851</ele>
        <time>2013-07-25T15:36:43Z</time>
      </trkpt>
      <trkpt lat="42.52677" lon="2.28079">
        <ele>852</ele>
        <time>2013-07-25T15:36:47Z</time>
      </trkpt>
      <trkpt lat="42.52679" lon="2.28081">
        <ele>855</ele>
        <time>2013-07-25T15:36:49Z</time>
      </trkpt>
      <trkpt lat="42.5268" lon="2.28084">
        <ele>856</ele>
        <time>2013-07-25T15:36:53Z</time>
      </trkpt>
      <trkpt lat="42.52677" lon="2.28086">
        <ele>860</ele>
        <time>2013-07-25T15:37:00Z</time>
      </trkpt>
      <trkpt lat="42.52673" lon="2.28083">
        <ele>860</ele>
        <time>2013-07-25T15:37:04Z</time>
      </trkpt>
      <trkpt lat="42.52671" lon="2.28082">
        <ele>860</ele>
        <time>2013-07-25T15:37:08Z</time>
      </trkpt>
      <trkpt lat="42.52665" lon="2.28083">
        <ele>859</ele>
        <time>2013-07-25T15:37:12Z</time>
      </trkpt>
      <trkpt lat="42.52663" lon="2.28083">
        <ele>857</ele>
        <time>2013-07-25T15:37:15Z</time>
      </trkpt>
      <trkpt lat="42.52658" lon="2.28083">
        <ele>856</ele>
        <time>2013-07-25T15:37:20Z</time>
      </trkpt>
      <trkpt lat="42.52652" lon="2.28083">
        <ele>856</ele>
        <time>2013-07-25T15:37:25Z</time>
      </trkpt>
      <trkpt lat="42.52648" lon="2.2808">
        <ele>855</ele>
        <time>2013-07-25T15:37:30Z</time>
      </trkpt>
      <trkpt lat="42.52648" lon="2.28077">
        <ele>853</ele>
        <time>2013-07-25T15:37:38Z</time>
      </trkpt>
      <trkpt lat="42.52646" lon="2.28077">
        <ele>852</ele>
        <time>2013-07-25T15:37:45Z</time>
      </trkpt>
      <trkpt lat="42.52644" lon="2.28078">
        <ele>852</ele>
        <time>2013-07-25T15:37:50Z</time>
      </trkpt>
      <trkpt lat="42.52642" lon="2.28079">
        <ele>852</ele>
        <time>2013-07-25T15:37:52Z</time>
      </trkpt>
      <trkpt lat="42.52642" lon="2.28077">
        <ele>852</ele>
        <time>2013-07-25T15:37:58Z</time>
      </trkpt>
      <trkpt lat="42.52641" lon="2.28076">
        <ele>852</ele>
        <time>2013-07-25T15:38:04Z</time>
      </trkpt>
      <trkpt lat="42.52641" lon="2.28078">
        <ele>853</ele>
        <time>2013-07-25T15:38:06Z</time>
      </trkpt>
      <trkpt lat="42.52639" lon="2.28079">
        <ele>855</ele>
        <time>2013-07-25T15:38:11Z</time>
      </trkpt>
      <trkpt lat="42.52637" lon="2.28076">
        <ele>857</ele>
        <time>2013-07-25T15:38:15Z</time>
      </trkpt>
      <trkpt lat="42.52635" lon="2.28073">
        <ele>859</ele>
        <time>2013-07-25T15:38:19Z</time>
      </trkpt>
      <trkpt lat="42.52633" lon="2.28069">
        <ele>865</ele>
        <time>2013-07-25T15:38:27Z</time>
      </trkpt>
      <trkpt lat="42.52633" lon="2.28071">
        <ele>870</ele>
        <time>2013-07-25T15:38:33Z</time>
      </trkpt>
      <trkpt lat="42.52631" lon="2.28072">
        <ele>873</ele>
        <time>2013-07-25T15:38:37Z</time>
      </trkpt>
      <trkpt lat="42.52629" lon="2.28072">
        <ele>875</ele>
        <time>2013-07-25T15:38:42Z</time>
      </trkpt>
      <trkpt lat="42.52628" lon="2.28072">
        <ele>876</ele>
        <time>2013-07-25T15:38:48Z</time>
      </trkpt>
      <trkpt lat="42.52628" lon="2.28074">
        <ele>879</ele>
        <time>2013-07-25T15:39:04Z</time>
      </trkpt>
      <trkpt lat="42.52629" lon="2.28076">
        <ele>879</ele>
        <time>2013-07-25T15:39:09Z</time>
      </trkpt>
      <trkpt lat="42.52628" lon="2.28074">
        <ele>878</ele>
        <time>2013-07-25T15:39:22Z</time>
      </trkpt>
      <trkpt lat="42.52626" lon="2.28072">
        <ele>878</ele>
        <time>2013-07-25T15:39:29Z</time>
      </trkpt>
      <trkpt lat="42.52625" lon="2.28071">
        <ele>880</ele>
        <time>2013-07-25T15:39:31Z</time>
      </trkpt>
      <trkpt lat="42.52624" lon="2.28069">
        <ele>884</ele>
        <time>2013-07-25T15:40:18Z</time>
      </trkpt>
      <trkpt lat="42.52626" lon="2.28071">
        <ele>885</ele>
        <time>2013-07-25T15:40:23Z</time>
      </trkpt>
      <trkpt lat="42.52626" lon="2.28072">
        <ele>885</ele>
        <time>2013-07-25T15:40:31Z</time>
      </trkpt>
      <trkpt lat="42.52628" lon="2.28075">
        <ele>885</ele>
        <time>2013-07-25T15:40:35Z</time>
      </trkpt>
      <trkpt lat="42.52629" lon="2.28076">
        <ele>881</ele>
        <time>2013-07-25T15:40:42Z</time>
      </trkpt>
      <trkpt lat="42.5263" lon="2.28078">
        <ele>879</ele>
        <time>2013-07-25T15:40:49Z</time>
      </trkpt>
      <trkpt lat="42.5263" lon="2.28076">
        <ele>877</ele>
        <time>2013-07-25T15:40:57Z</time>
      </trkpt>
      <trkpt lat="42.52628" lon="2.28072">
        <ele>881</ele>
        <time>2013-07-25T15:41:04Z</time>
      </trkpt>
      <trkpt lat="42.52628" lon="2.28071">
        <ele>881</ele>
        <time>2013-07-25T15:41:10Z</time>
      </trkpt>
      <trkpt lat="42.52627" lon="2.28072">
        <ele>882</ele>
        <time>2013-07-25T15:41:19Z</time>
      </trkpt>
      <trkpt lat="42.52628" lon="2.28074">
        <ele>882</ele>
        <time>2013-07-25T15:41:22Z</time>
      </trkpt>
      <trkpt lat="42.52628" lon="2.28076">
        <ele>881</ele>
        <time>2013-07-25T15:41:25Z</time>
      </trkpt>
      <trkpt lat="42.52629" lon="2.28075">
        <ele>880</ele>
        <time>2013-07-25T15:41:27Z</time>
      </trkpt>
      <trkpt lat="42.5263" lon="2.28074">
        <ele>880</ele>
        <time>2013-07-25T15:41:30Z</time>
      </trkpt>
      <trkpt lat="42.52632" lon="2.28072">
        <ele>880</ele>
        <time>2013-07-25T15:41:33Z</time>
      </trkpt>
      <trkpt lat="42.52633" lon="2.28071">
        <ele>879</ele>
        <time>2013-07-25T15:41:35Z</time>
      </trkpt>
      <trkpt lat="42.52635" lon="2.28071">
        <ele>878</ele>
        <time>2013-07-25T15:41:37Z</time>
      </trkpt>
      <trkpt lat="42.52636" lon="2.2807">
        <ele>875</ele>
        <time>2013-07-25T15:41:40Z</time>
      </trkpt>
      <trkpt lat="42.52637" lon="2.28067">
        <ele>873</ele>
        <time>2013-07-25T15:41:42Z</time>
      </trkpt>
      <trkpt lat="42.52639" lon="2.28065">
        <ele>872</ele>
        <time>2013-07-25T15:41:44Z</time>
      </trkpt>
      <trkpt lat="42.52642" lon="2.28065">
        <ele>871</ele>
        <time>2013-07-25T15:41:46Z</time>
      </trkpt>
      <trkpt lat="42.52645" lon="2.28068">
        <ele>869</ele>
        <time>2013-07-25T15:41:48Z</time>
      </trkpt>
      <trkpt lat="42.52643" lon="2.28074">
        <ele>866</ele>
        <time>2013-07-25T15:41:57Z</time>
      </trkpt>
      <trkpt lat="42.5264" lon="2.28072">
        <ele>852</ele>
        <time>2013-07-25T15:42:07Z</time>
      </trkpt>
      <trkpt lat="42.52643" lon="2.28075">
        <ele>849</ele>
        <time>2013-07-25T15:42:10Z</time>
      </trkpt>
      <trkpt lat="42.52648" lon="2.28077">
        <ele>847</ele>
        <time>2013-07-25T15:42:12Z</time>
      </trkpt>
      <trkpt lat="42.52656" lon="2.28079">
        <ele>847</ele>
        <time>2013-07-25T15:42:18Z</time>
      </trkpt>
      <trkpt lat="42.52658" lon="2.2808">
        <ele>847</ele>
        <time>2013-07-25T15:42:20Z</time>
      </trkpt>
      <trkpt lat="42.5266" lon="2.28081">
        <ele>848</ele>
        <time>2013-07-25T15:42:22Z</time>
      </trkpt>
      <trkpt lat="42.52661" lon="2.28082">
        <ele>849</ele>
        <time>2013-07-25T15:42:25Z</time>
      </trkpt>
      <trkpt lat="42.52666" lon="2.28084">
        <ele>850</ele>
        <time>2013-07-25T15:42:27Z</time>
      </trkpt>
      <trkpt lat="42.52667" lon="2.28085">
        <ele>852</ele>
        <time>2013-07-25T15:42:29Z</time>
      </trkpt>
      <trkpt lat="42.52669" lon="2.28085">
        <ele>855</ele>
        <time>2013-07-25T15:42:32Z</time>
      </trkpt>
      <trkpt lat="42.5267" lon="2.28086">
        <ele>857</ele>
        <time>2013-07-25T15:42:35Z</time>
      </trkpt>
      <trkpt lat="42.52672" lon="2.28086">
        <ele>858</ele>
        <time>2013-07-25T15:42:41Z</time>
      </trkpt>
      <trkpt lat="42.52671" lon="2.28086">
        <ele>859</ele>
        <time>2013-07-25T15:42:43Z</time>
      </trkpt>
      <trkpt lat="42.52664" lon="2.28084">
        <ele>859</ele>
        <time>2013-07-25T15:42:45Z</time>
      </trkpt>
      <trkpt lat="42.52659" lon="2.28083">
        <ele>859</ele>
        <time>2013-07-25T15:42:47Z</time>
      </trkpt>
      <trkpt lat="42.52658" lon="2.28083">
        <ele>858</ele>
        <time>2013-07-25T15:42:49Z</time>
      </trkpt>
      <trkpt lat="42.52655" lon="2.28082">
        <ele>856</ele>
        <time>2013-07-25T15:42:52Z</time>
      </trkpt>
      <trkpt lat="42.52656" lon="2.28083">
        <ele>855</ele>
        <time>2013-07-25T15:42:55Z</time>
      </trkpt>
      <trkpt lat="42.52655" lon="2.28081">
        <ele>853</ele>
        <time>2013-07-25T15:42:58Z</time>
      </trkpt>
      <trkpt lat="42.52657" lon="2.2808">
        <ele>850</ele>
        <time>2013-07-25T15:43:03Z</time>
      </trkpt>
      <trkpt lat="42.5266" lon="2.2808">
        <ele>850</ele>
        <time>2013-07-25T15:43:05Z</time>
      </trkpt>
      <trkpt lat="42.52664" lon="2.28079">
        <ele>850</ele>
        <time>2013-07-25T15:43:07Z</time>
      </trkpt>
      <trkpt lat="42.52665" lon="2.28079">
        <ele>850</ele>
        <time>2013-07-25T15:43:09Z</time>
      </trkpt>
      <trkpt lat="42.52663" lon="2.28077">
        <ele>850</ele>
        <time>2013-07-25T15:43:13Z</time>
      </trkpt>
      <trkpt lat="42.52662" lon="2.28076">
        <ele>850</ele>
        <time>2013-07-25T15:43:15Z</time>
      </trkpt>
      <trkpt lat="42.52659" lon="2.28075">
        <ele>850</ele>
        <time>2013-07-25T15:43:17Z</time>
      </trkpt>
      <trkpt lat="42.52657" lon="2.28075">
        <ele>850</ele>
        <time>2013-07-25T15:43:20Z</time>
      </trkpt>
      <trkpt lat="42.52653" lon="2.28074">
        <ele>850</ele>
        <time>2013-07-25T15:43:23Z</time>
      </trkpt>
      <trkpt lat="42.52653" lon="2.28076">
        <ele>850</ele>
        <time>2013-07-25T15:43:26Z</time>
      </trkpt>
      <trkpt lat="42.52652" lon="2.28077">
        <ele>850</ele>
        <time>2013-07-25T15:43:29Z</time>
      </trkpt>
      <trkpt lat="42.52652" lon="2.28076">
        <ele>850</ele>
        <time>2013-07-25T15:43:39Z</time>
      </trkpt>
      <trkpt lat="42.52653" lon="2.28076">
        <ele>850</ele>
        <time>2013-07-25T15:43:44Z</time>
      </trkpt>
      <trkpt lat="42.52654" lon="2.28077">
        <ele>850</ele>
        <time>2013-07-25T15:43:46Z</time>
      </trkpt>
      <trkpt lat="42.52656" lon="2.28078">
        <ele>850</ele>
        <time>2013-07-25T15:43:53Z</time>
      </trkpt>
      <trkpt lat="42.52658" lon="2.28079">
        <ele>850</ele>
        <time>2013-07-25T15:43:56Z</time>
      </trkpt>
      <trkpt lat="42.5266" lon="2.28079">
        <ele>850</ele>
        <time>2013-07-25T15:44:03Z</time>
      </trkpt>
      <trkpt lat="42.52658" lon="2.28077">
        <ele>850</ele>
        <time>2013-07-25T15:44:08Z</time>
      </trkpt>
      <trkpt lat="42.52659" lon="2.28076">
        <ele>850</ele>
        <time>2013-07-25T15:44:11Z</time>
      </trkpt>
      <trkpt lat="42.52661" lon="2.28075">
        <ele>850</ele>
        <time>2013-07-25T15:44:13Z</time>
      </trkpt>
      <trkpt lat="42.52663" lon="2.28075">
        <ele>850</ele>
        <time>2013-07-25T15:44:15Z</time>
      </trkpt>
      <trkpt lat="42.52664" lon="2.28075">
        <ele>850</ele>
        <time>2013-07-25T15:44:17Z</time>
      </trkpt>
      <trkpt lat="42.52664" lon="2.28073">
        <ele>849</ele>
        <time>2013-07-25T15:44:22Z</time>
      </trkpt>
      <trkpt lat="42.52665" lon="2.2807">
        <ele>849</ele>
        <time>2013-07-25T15:44:25Z</time>
      </trkpt>
      <trkpt lat="42.52668" lon="2.28068">
        <ele>849</ele>
        <time>2013-07-25T15:44:27Z</time>
      </trkpt>
      <trkpt lat="42.52669" lon="2.28069">
        <ele>849</ele>
        <time>2013-07-25T15:44:30Z</time>
      </trkpt>
      <trkpt lat="42.52668" lon="2.2807">
        <ele>848</ele>
        <time>2013-07-25T15:44:39Z</time>
      </trkpt>
      <trkpt lat="42.52668" lon="2.28073">
        <ele>848</ele>
        <time>2013-07-25T15:44:41Z</time>
      </trkpt>
      <trkpt lat="42.52668" lon="2.28077">
        <ele>848</ele>
        <time>2013-07-25T15:44:43Z</time>
      </trkpt>
      <trkpt lat="42.52668" lon="2.2808">
        <ele>848</ele>
        <time>2013-07-25T15:44:45Z</time>
      </trkpt>
      <trkpt lat="42.52666" lon="2.28083">
        <ele>848</ele>
        <time>2013-07-25T15:44:47Z</time>
      </trkpt>
      <trkpt lat="42.52666" lon="2.28086">
        <ele>848</ele>
        <time>2013-07-25T15:44:49Z</time>
      </trkpt>
      <trkpt lat="42.52664" lon="2.28089">
        <ele>848</ele>
        <time>2013-07-25T15:44:51Z</time>
      </trkpt>
      <trkpt lat="42.52663" lon="2.28092">
        <ele>848</ele>
        <time>2013-07-25T15:44:53Z</time>
      </trkpt>
      <trkpt lat="42.52663" lon="2.28095">
        <ele>848</ele>
        <time>2013-07-25T15:44:56Z</time>
      </trkpt>
      <trkpt lat="42.52661" lon="2.28099">
        <ele>848</ele>
        <time>2013-07-25T15:44:59Z</time>
      </trkpt>
      <trkpt lat="42.52658" lon="2.28103">
        <ele>848</ele>
        <time>2013-07-25T15:45:02Z</time>
      </trkpt>
      <trkpt lat="42.52656" lon="2.28106">
        <ele>848</ele>
        <time>2013-07-25T15:45:05Z</time>
      </trkpt>
      <trkpt lat="42.52655" lon="2.28109">
        <ele>848</ele>
        <time>2013-07-25T15:45:07Z</time>
      </trkpt>
      <trkpt lat="42.52655" lon="2.28111">
        <ele>848</ele>
        <time>2013-07-25T15:45:09Z</time>
      </trkpt>
      <trkpt lat="42.52654" lon="2.28115">
        <ele>848</ele>
        <time>2013-07-25T15:45:12Z</time>
      </trkpt>
      <trkpt lat="42.52653" lon="2.28117">
        <ele>848</ele>
        <time>2013-07-25T15:45:14Z</time>
      </trkpt>
      <trkpt lat="42.52652" lon="2.2812">
        <ele>848</ele>
        <time>2013-07-25T15:45:16Z</time>
      </trkpt>
      <trkpt lat="42.52652" lon="2.28122">
        <ele>848</ele>
        <time>2013-07-25T15:45:18Z</time>
      </trkpt>
      <trkpt lat="42.52651" lon="2.28123">
        <ele>848</ele>
        <time>2013-07-25T15:45:20Z</time>
      </trkpt>
      <trkpt lat="42.5265" lon="2.28125">
        <ele>848</ele>
        <time>2013-07-25T15:45:22Z</time>
      </trkpt>
      <trkpt lat="42.52652" lon="2.28128">
        <ele>848</ele>
        <time>2013-07-25T15:45:24Z</time>
      </trkpt>
      <trkpt lat="42.52653" lon="2.2813">
        <ele>848</ele>
        <time>2013-07-25T15:45:26Z</time>
      </trkpt>
      <trkpt lat="42.52652" lon="2.28131">
        <ele>849</ele>
        <time>2013-07-25T15:45:28Z</time>
      </trkpt>
      <trkpt lat="42.52651" lon="2.28133">
        <ele>849</ele>
        <time>2013-07-25T15:45:30Z</time>
      </trkpt>
      <trkpt lat="42.52651" lon="2.28136">
        <ele>850</ele>
        <time>2013-07-25T15:45:32Z</time>
      </trkpt>
      <trkpt lat="42.52651" lon="2.28139">
        <ele>850</ele>
        <time>2013-07-25T15:45:34Z</time>
      </trkpt>
      <trkpt lat="42.5265" lon="2.28141">
        <ele>850</ele>
        <time>2013-07-25T15:45:36Z</time>
      </trkpt>
      <trkpt lat="42.5265" lon="2.28144">
        <ele>851</ele>
        <time>2013-07-25T15:45:38Z</time>
      </trkpt>
      <trkpt lat="42.52649" lon="2.28146">
        <ele>851</ele>
        <time>2013-07-25T15:45:40Z</time>
      </trkpt>
      <trkpt lat="42.52648" lon="2.28149">
        <ele>852</ele>
        <time>2013-07-25T15:45:42Z</time>
      </trkpt>
      <trkpt lat="42.52646" lon="2.28153">
        <ele>852</ele>
        <time>2013-07-25T15:45:45Z</time>
      </trkpt>
      <trkpt lat="42.52646" lon="2.28155">
        <ele>852</ele>
        <time>2013-07-25T15:45:47Z</time>
      </trkpt>
      <trkpt lat="42.52646" lon="2.28158">
        <ele>852</ele>
        <time>2013-07-25T15:45:49Z</time>
      </trkpt>
      <trkpt lat="42.52646" lon="2.2816">
        <ele>852</ele>
        <time>2013-07-25T15:45:51Z</time>
      </trkpt>
      <trkpt lat="42.52646" lon="2.28162">
        <ele>853</ele>
        <time>2013-07-25T15:45:53Z</time>
      </trkpt>
      <trkpt lat="42.52646" lon="2.28164">
        <ele>853</ele>
        <time>2013-07-25T15:45:55Z</time>
      </trkpt>
      <trkpt lat="42.52645" lon="2.28167">
        <ele>854</ele>
        <time>2013-07-25T15:45:57Z</time>
      </trkpt>
      <trkpt lat="42.52646" lon="2.28169">
        <ele>855</ele>
        <time>2013-07-25T15:45:59Z</time>
      </trkpt>
      <trkpt lat="42.52646" lon="2.28171">
        <ele>856</ele>
        <time>2013-07-25T15:46:01Z</time>
      </trkpt>
      <trkpt lat="42.52646" lon="2.28173">
        <ele>857</ele>
        <time>2013-07-25T15:46:03Z</time>
      </trkpt>
      <trkpt lat="42.52647" lon="2.28175">
        <ele>857</ele>
        <time>2013-07-25T15:46:05Z</time>
      </trkpt>
      <trkpt lat="42.52648" lon="2.28177">
        <ele>858</ele>
        <time>2013-07-25T15:46:07Z</time>
      </trkpt>
      <trkpt lat="42.52648" lon="2.28179">
        <ele>858</ele>
        <time>2013-07-25T15:46:09Z</time>
      </trkpt>
      <trkpt lat="42.52648" lon="2.28181">
        <ele>858</ele>
        <time>2013-07-25T15:46:11Z</time>
      </trkpt>
      <trkpt lat="42.52648" lon="2.28183">
        <ele>859</ele>
        <time>2013-07-25T15:46:13Z</time>
      </trkpt>
      <trkpt lat="42.52649" lon="2.28185">
        <ele>859</ele>
        <time>2013-07-25T15:46:15Z</time>
      </trkpt>
      <trkpt lat="42.52649" lon="2.28187">
        <ele>859</ele>
        <time>2013-07-25T15:46:17Z</time>
      </trkpt>
      <trkpt lat="42.5265" lon="2.28189">
        <ele>859</ele>
        <time>2013-07-25T15:46:19Z</time>
      </trkpt>
      <trkpt lat="42.5265" lon="2.28192">
        <ele>859</ele>
        <time>2013-07-25T15:46:21Z</time>
      </trkpt>
      <trkpt lat="42.52651" lon="2.28194">
        <ele>859</ele>
        <time>2013-07-25T15:46:23Z</time>
      </trkpt>
      <trkpt lat="42.52651" lon="2.28196">
        <ele>859</ele>
        <time>2013-07-25T15:46:25Z</time>
      </trkpt>
      <trkpt lat="42.52651" lon="2.28198">
        <ele>859</ele>
        <time>2013-07-25T15:46:27Z</time>
      </trkpt>
      <trkpt lat="42.52651" lon="2.282">
        <ele>859</ele>
        <time>2013-07-25T15:46:29Z</time>
      </trkpt>
      <trkpt lat="42.52651" lon="2.28202">
        <ele>860</ele>
        <time>2013-07-25T15:46:31Z</time>
      </trkpt>
      <trkpt lat="42.52652" lon="2.28205">
        <ele>862</ele>
        <time>2013-07-25T15:46:34Z</time>
      </trkpt>
      <trkpt lat="42.52652" lon="2.28207">
        <ele>862</ele>
        <time>2013-07-25T15:46:36Z</time>
      </trkpt>
      <trkpt lat="42.52653" lon="2.28209">
        <ele>863</ele>
        <time>2013-07-25T15:46:38Z</time>
      </trkpt>
      <trkpt lat="42.52653" lon="2.28211">
        <ele>863</ele>
        <time>2013-07-25T15:46:40Z</time>
      </trkpt>
      <trkpt lat="42.52654" lon="2.28213">
        <ele>864</ele>
        <time>2013-07-25T15:46:42Z</time>
      </trkpt>
      <trkpt lat="42.52654" lon="2.28214">
        <ele>865</ele>
        <time>2013-07-25T15:46:44Z</time>
      </trkpt>
      <trkpt lat="42.52654" lon="2.28216">
        <ele>869</ele>
        <time>2013-07-25T15:46:49Z</time>
      </trkpt>
      <trkpt lat="42.52655" lon="2.28218">
        <ele>870</ele>
        <time>2013-07-25T15:46:51Z</time>
      </trkpt>
      <trkpt lat="42.52658" lon="2.28222">
        <ele>870</ele>
        <time>2013-07-25T15:46:54Z</time>
      </trkpt>
      <trkpt lat="42.5266" lon="2.28225">
        <ele>870</ele>
        <time>2013-07-25T15:46:56Z</time>
      </trkpt>
      <trkpt lat="42.5266" lon="2.28226">
        <ele>870</ele>
        <time>2013-07-25T15:46:59Z</time>
      </trkpt>
      <trkpt lat="42.5266" lon="2.28228">
        <ele>875</ele>
        <time>2013-07-25T15:47:08Z</time>
      </trkpt>
      <trkpt lat="42.52661" lon="2.2823">
        <ele>877</ele>
        <time>2013-07-25T15:47:10Z</time>
      </trkpt>
      <trkpt lat="42.52663" lon="2.28232">
        <ele>878</ele>
        <time>2013-07-25T15:47:12Z</time>
      </trkpt>
      <trkpt lat="42.52666" lon="2.28235">
        <ele>878</ele>
        <time>2013-07-25T15:47:14Z</time>
      </trkpt>
      <trkpt lat="42.52669" lon="2.28239">
        <ele>878</ele>
        <time>2013-07-25T15:47:19Z</time>
      </trkpt>
      <trkpt lat="42.5267" lon="2.28241">
        <ele>878</ele>
        <time>2013-07-25T15:47:21Z</time>
      </trkpt>
      <trkpt lat="42.5267" lon="2.28242">
        <ele>878</ele>
        <time>2013-07-25T15:47:23Z</time>
      </trkpt>
      <trkpt lat="42.5267" lon="2.28244">
        <ele>878</ele>
        <time>2013-07-25T15:47:25Z</time>
      </trkpt>
      <trkpt lat="42.5267" lon="2.28246">
        <ele>878</ele>
        <time>2013-07-25T15:47:27Z</time>
      </trkpt>
      <trkpt lat="42.52671" lon="2.28248">
        <ele>877</ele>
        <time>2013-07-25T15:47:29Z</time>
      </trkpt>
      <trkpt lat="42.52672" lon="2.28251">
        <ele>877</ele>
        <time>2013-07-25T15:47:31Z</time>
      </trkpt>
      <trkpt lat="42.52673" lon="2.28255">
        <ele>876</ele>
        <time>2013-07-25T15:47:34Z</time>
      </trkpt>
      <trkpt lat="42.52676" lon="2.28259">
        <ele>875</ele>
        <time>2013-07-25T15:47:36Z</time>
      </trkpt>
      <trkpt lat="42.52678" lon="2.28261">
        <ele>874</ele>
        <time>2013-07-25T15:47:38Z</time>
      </trkpt>
      <trkpt lat="42.5268" lon="2.28264">
        <ele>873</ele>
        <time>2013-07-25T15:47:41Z</time>
      </trkpt>
      <trkpt lat="42.52681" lon="2.28266">
        <ele>871</ele>
        <time>2013-07-25T15:47:43Z</time>
      </trkpt>
      <trkpt lat="42.52682" lon="2.28267">
        <ele>869</ele>
        <time>2013-07-25T15:47:45Z</time>
      </trkpt>
      <trkpt lat="42.52683" lon="2.28268">
        <ele>866</ele>
        <time>2013-07-25T15:47:48Z</time>
      </trkpt>
      <trkpt lat="42.52682" lon="2.28266">
        <ele>865</ele>
        <time>2013-07-25T15:47:53Z</time>
      </trkpt>
      <trkpt lat="42.52683" lon="2.28264">
        <ele>865</ele>
        <time>2013-07-25T15:47:57Z</time>
      </trkpt>
      <trkpt lat="42.52684" lon="2.28266">
        <ele>865</ele>
        <time>2013-07-25T15:47:59Z</time>
      </trkpt>
      <trkpt lat="42.52685" lon="2.28267">
        <ele>865</ele>
        <time>2013-07-25T15:48:02Z</time>
      </trkpt>
      <trkpt lat="42.52686" lon="2.28266">
        <ele>865</ele>
        <time>2013-07-25T15:48:03Z</time>
      </trkpt>
    </trkseg>
  </trk>
</gpx>